<?xml version="1.0" encoding="UTF-8" standalone="no" ?>
<gpx xmlns="http://www.topografix.com/GPX/1/1" xmlns:xsi="http://www.w3.org/2001/XMLSchema-instance" xsi:schemaLocation="http://www.topografix.com/GPX/1/1 http://www.topografix.com/GPX/1/1/gpx.xsd" version="1.1" creator="VisuGPX - https://www.visugpx.com">
  <metadata>
    <name>RSPFY-Les Mesnuls</name>
    <desc><![CDATA[Boucle au départ des Mesnuls passant par les carrefours des Brûlins et du Comte de Toulouse.]]></desc>
  </metadata>
  <trk>
    <name><![CDATA[2026-05-21 08:56]]></name>
    <desc><![CDATA[<p>Heure de départ: 08:56 21 mai 2026<br/>Heure d'arrivée: 11:32 21 mai 2026<br/>Distance: 11,4 km (02:35)<br/>Temps déplacement: 02:25<br/>Vitesse moyenne: 4,39 km/h<br/>Vitesse moyenne mouv.: 4,68 km/h<br/>Vitesse Max.: 7,31 km/h<br/>Altitude minimale: 106 m<br/>Altitude maximale: 200 m<br/>Vitesse de montée: 256,1 m/h<br/>Vitesse de descente: -212,7 m/h<br/>Gain d'altitude: 293 m<br/>Perte d'altitude: -297 m<br/>Temps de montée: 01:08<br/>Temps de descente: 01:24<br/></p><hr align="center" width="480" style="height: 2px; width: 517px"/>]]></desc>
    <trkseg>
      <trkpt lat="48.75718" lon="1.83521">
        <ele>111</ele>
        <time>2026-05-21T06:56:49Z</time>
      </trkpt>
      <trkpt lat="48.75718" lon="1.83536">
        <ele>111</ele>
        <time>2026-05-21T06:57:03Z</time>
      </trkpt>
      <trkpt lat="48.75716" lon="1.8355">
        <ele>111.2</ele>
        <time>2026-05-21T06:57:13Z</time>
      </trkpt>
      <trkpt lat="48.75715" lon="1.83564">
        <ele>111.3</ele>
        <time>2026-05-21T06:57:24Z</time>
      </trkpt>
      <trkpt lat="48.75709" lon="1.83575">
        <ele>111.5</ele>
        <time>2026-05-21T06:57:33Z</time>
      </trkpt>
      <trkpt lat="48.75703" lon="1.83586">
        <ele>111.8</ele>
        <time>2026-05-21T06:57:41Z</time>
      </trkpt>
      <trkpt lat="48.75696" lon="1.83596">
        <ele>112.4</ele>
        <time>2026-05-21T06:57:50Z</time>
      </trkpt>
      <trkpt lat="48.75691" lon="1.83584">
        <ele>112.1</ele>
        <time>2026-05-21T06:58:02Z</time>
      </trkpt>
      <trkpt lat="48.75685" lon="1.83571">
        <ele>112.3</ele>
        <time>2026-05-21T06:58:10Z</time>
      </trkpt>
      <trkpt lat="48.7568" lon="1.8356">
        <ele>112.5</ele>
        <time>2026-05-21T06:58:18Z</time>
      </trkpt>
      <trkpt lat="48.75675" lon="1.83547">
        <ele>112.4</ele>
        <time>2026-05-21T06:58:26Z</time>
      </trkpt>
      <trkpt lat="48.75669" lon="1.83535">
        <ele>112.2</ele>
        <time>2026-05-21T06:58:34Z</time>
      </trkpt>
      <trkpt lat="48.75663" lon="1.83523">
        <ele>112.3</ele>
        <time>2026-05-21T06:58:42Z</time>
      </trkpt>
      <trkpt lat="48.75657" lon="1.83512">
        <ele>112.5</ele>
        <time>2026-05-21T06:58:50Z</time>
      </trkpt>
      <trkpt lat="48.75651" lon="1.835">
        <ele>112.6</ele>
        <time>2026-05-21T06:58:58Z</time>
      </trkpt>
      <trkpt lat="48.75642" lon="1.83493">
        <ele>112.9</ele>
        <time>2026-05-21T06:59:06Z</time>
      </trkpt>
      <trkpt lat="48.75632" lon="1.83491">
        <ele>113.6</ele>
        <time>2026-05-21T06:59:13Z</time>
      </trkpt>
      <trkpt lat="48.75623" lon="1.8349">
        <ele>114.5</ele>
        <time>2026-05-21T06:59:20Z</time>
      </trkpt>
      <trkpt lat="48.75613" lon="1.83487">
        <ele>115.4</ele>
        <time>2026-05-21T06:59:27Z</time>
      </trkpt>
      <trkpt lat="48.75604" lon="1.83485">
        <ele>115.9</ele>
        <time>2026-05-21T06:59:35Z</time>
      </trkpt>
      <trkpt lat="48.75598" lon="1.83472">
        <ele>115.9</ele>
        <time>2026-05-21T06:59:44Z</time>
      </trkpt>
      <trkpt lat="48.75594" lon="1.83458">
        <ele>116.2</ele>
        <time>2026-05-21T06:59:52Z</time>
      </trkpt>
      <trkpt lat="48.7559" lon="1.83446">
        <ele>116.5</ele>
        <time>2026-05-21T06:59:59Z</time>
      </trkpt>
      <trkpt lat="48.75585" lon="1.83434">
        <ele>116.9</ele>
        <time>2026-05-21T07:00:06Z</time>
      </trkpt>
      <trkpt lat="48.7558" lon="1.83421">
        <ele>117.2</ele>
        <time>2026-05-21T07:00:13Z</time>
      </trkpt>
      <trkpt lat="48.75576" lon="1.83409">
        <ele>117.2</ele>
        <time>2026-05-21T07:00:20Z</time>
      </trkpt>
      <trkpt lat="48.75571" lon="1.83395">
        <ele>117.1</ele>
        <time>2026-05-21T07:00:27Z</time>
      </trkpt>
      <trkpt lat="48.75566" lon="1.83383">
        <ele>117.3</ele>
        <time>2026-05-21T07:00:33Z</time>
      </trkpt>
      <trkpt lat="48.75562" lon="1.83368">
        <ele>117.7</ele>
        <time>2026-05-21T07:00:40Z</time>
      </trkpt>
      <trkpt lat="48.75559" lon="1.83355">
        <ele>117.9</ele>
        <time>2026-05-21T07:00:47Z</time>
      </trkpt>
      <trkpt lat="48.75553" lon="1.83344">
        <ele>118.2</ele>
        <time>2026-05-21T07:00:54Z</time>
      </trkpt>
      <trkpt lat="48.75549" lon="1.83331">
        <ele>118.8</ele>
        <time>2026-05-21T07:01:01Z</time>
      </trkpt>
      <trkpt lat="48.75544" lon="1.83318">
        <ele>119.8</ele>
        <time>2026-05-21T07:01:09Z</time>
      </trkpt>
      <trkpt lat="48.75541" lon="1.83304">
        <ele>120.6</ele>
        <time>2026-05-21T07:01:17Z</time>
      </trkpt>
      <trkpt lat="48.75546" lon="1.83292">
        <ele>120.5</ele>
        <time>2026-05-21T07:01:25Z</time>
      </trkpt>
      <trkpt lat="48.75553" lon="1.83281">
        <ele>120.2</ele>
        <time>2026-05-21T07:01:33Z</time>
      </trkpt>
      <trkpt lat="48.75559" lon="1.8327">
        <ele>119.9</ele>
        <time>2026-05-21T07:01:41Z</time>
      </trkpt>
      <trkpt lat="48.75566" lon="1.83258">
        <ele>119.4</ele>
        <time>2026-05-21T07:01:49Z</time>
      </trkpt>
      <trkpt lat="48.75572" lon="1.83247">
        <ele>118.6</ele>
        <time>2026-05-21T07:01:56Z</time>
      </trkpt>
      <trkpt lat="48.75573" lon="1.83233">
        <ele>117.9</ele>
        <time>2026-05-21T07:02:03Z</time>
      </trkpt>
      <trkpt lat="48.75569" lon="1.8322">
        <ele>117.9</ele>
        <time>2026-05-21T07:02:10Z</time>
      </trkpt>
      <trkpt lat="48.75564" lon="1.83208">
        <ele>117.9</ele>
        <time>2026-05-21T07:02:17Z</time>
      </trkpt>
      <trkpt lat="48.75563" lon="1.83193">
        <ele>117.2</ele>
        <time>2026-05-21T07:02:25Z</time>
      </trkpt>
      <trkpt lat="48.7557" lon="1.83184">
        <ele>116.3</ele>
        <time>2026-05-21T07:02:32Z</time>
      </trkpt>
      <trkpt lat="48.75578" lon="1.83178">
        <ele>115.1</ele>
        <time>2026-05-21T07:02:39Z</time>
      </trkpt>
      <trkpt lat="48.75586" lon="1.83172">
        <ele>113.9</ele>
        <time>2026-05-21T07:02:46Z</time>
      </trkpt>
      <trkpt lat="48.75595" lon="1.83163">
        <ele>112.7</ele>
        <time>2026-05-21T07:02:54Z</time>
      </trkpt>
      <trkpt lat="48.75602" lon="1.83152">
        <ele>111.8</ele>
        <time>2026-05-21T07:03:02Z</time>
      </trkpt>
      <trkpt lat="48.75611" lon="1.83145">
        <ele>111</ele>
        <time>2026-05-21T07:03:10Z</time>
      </trkpt>
      <trkpt lat="48.75619" lon="1.83138">
        <ele>110.4</ele>
        <time>2026-05-21T07:03:17Z</time>
      </trkpt>
      <trkpt lat="48.75628" lon="1.83131">
        <ele>109.5</ele>
        <time>2026-05-21T07:03:24Z</time>
      </trkpt>
      <trkpt lat="48.75635" lon="1.83122">
        <ele>108.7</ele>
        <time>2026-05-21T07:03:31Z</time>
      </trkpt>
      <trkpt lat="48.75643" lon="1.83116">
        <ele>108</ele>
        <time>2026-05-21T07:03:38Z</time>
      </trkpt>
      <trkpt lat="48.75653" lon="1.8311">
        <ele>107.5</ele>
        <time>2026-05-21T07:03:46Z</time>
      </trkpt>
      <trkpt lat="48.75662" lon="1.83105">
        <ele>107.2</ele>
        <time>2026-05-21T07:03:54Z</time>
      </trkpt>
      <trkpt lat="48.75669" lon="1.83095">
        <ele>106.9</ele>
        <time>2026-05-21T07:04:02Z</time>
      </trkpt>
      <trkpt lat="48.75678" lon="1.83093">
        <ele>106.6</ele>
        <time>2026-05-21T07:04:13Z</time>
      </trkpt>
      <trkpt lat="48.75688" lon="1.8309">
        <ele>106.2</ele>
        <time>2026-05-21T07:04:21Z</time>
      </trkpt>
      <trkpt lat="48.75697" lon="1.83084">
        <ele>106</ele>
        <time>2026-05-21T07:04:29Z</time>
      </trkpt>
      <trkpt lat="48.75705" lon="1.83074">
        <ele>106</ele>
        <time>2026-05-21T07:04:37Z</time>
      </trkpt>
      <trkpt lat="48.75709" lon="1.8306">
        <ele>106</ele>
        <time>2026-05-21T07:04:45Z</time>
      </trkpt>
      <trkpt lat="48.75712" lon="1.83047">
        <ele>106</ele>
        <time>2026-05-21T07:04:53Z</time>
      </trkpt>
      <trkpt lat="48.75716" lon="1.83034">
        <ele>106</ele>
        <time>2026-05-21T07:05:01Z</time>
      </trkpt>
      <trkpt lat="48.75721" lon="1.83023">
        <ele>106</ele>
        <time>2026-05-21T07:05:09Z</time>
      </trkpt>
      <trkpt lat="48.75723" lon="1.83008">
        <ele>106</ele>
        <time>2026-05-21T07:05:17Z</time>
      </trkpt>
      <trkpt lat="48.75725" lon="1.82993">
        <ele>106</ele>
        <time>2026-05-21T07:05:25Z</time>
      </trkpt>
      <trkpt lat="48.75729" lon="1.82979">
        <ele>106</ele>
        <time>2026-05-21T07:05:33Z</time>
      </trkpt>
      <trkpt lat="48.75732" lon="1.82964">
        <ele>106.3</ele>
        <time>2026-05-21T07:05:41Z</time>
      </trkpt>
      <trkpt lat="48.75735" lon="1.82951">
        <ele>106.8</ele>
        <time>2026-05-21T07:05:49Z</time>
      </trkpt>
      <trkpt lat="48.75738" lon="1.82937">
        <ele>107</ele>
        <time>2026-05-21T07:05:57Z</time>
      </trkpt>
      <trkpt lat="48.75741" lon="1.82923">
        <ele>107</ele>
        <time>2026-05-21T07:06:04Z</time>
      </trkpt>
      <trkpt lat="48.75746" lon="1.82911">
        <ele>107.2</ele>
        <time>2026-05-21T07:06:12Z</time>
      </trkpt>
      <trkpt lat="48.75751" lon="1.82897">
        <ele>107.7</ele>
        <time>2026-05-21T07:06:20Z</time>
      </trkpt>
      <trkpt lat="48.75754" lon="1.82883">
        <ele>108.2</ele>
        <time>2026-05-21T07:06:28Z</time>
      </trkpt>
      <trkpt lat="48.75758" lon="1.82871">
        <ele>108.5</ele>
        <time>2026-05-21T07:06:35Z</time>
      </trkpt>
      <trkpt lat="48.75763" lon="1.82857">
        <ele>109</ele>
        <time>2026-05-21T07:06:43Z</time>
      </trkpt>
      <trkpt lat="48.75768" lon="1.82846">
        <ele>109.8</ele>
        <time>2026-05-21T07:06:51Z</time>
      </trkpt>
      <trkpt lat="48.75772" lon="1.82833">
        <ele>110.6</ele>
        <time>2026-05-21T07:06:59Z</time>
      </trkpt>
      <trkpt lat="48.75778" lon="1.8282">
        <ele>111.5</ele>
        <time>2026-05-21T07:07:07Z</time>
      </trkpt>
      <trkpt lat="48.75782" lon="1.82807">
        <ele>112.2</ele>
        <time>2026-05-21T07:07:14Z</time>
      </trkpt>
      <trkpt lat="48.75787" lon="1.82793">
        <ele>112.8</ele>
        <time>2026-05-21T07:07:22Z</time>
      </trkpt>
      <trkpt lat="48.75791" lon="1.82779">
        <ele>113.4</ele>
        <time>2026-05-21T07:07:30Z</time>
      </trkpt>
      <trkpt lat="48.75795" lon="1.82766">
        <ele>114</ele>
        <time>2026-05-21T07:07:37Z</time>
      </trkpt>
      <trkpt lat="48.758" lon="1.82753">
        <ele>114.5</ele>
        <time>2026-05-21T07:07:45Z</time>
      </trkpt>
      <trkpt lat="48.75805" lon="1.8274">
        <ele>115.3</ele>
        <time>2026-05-21T07:07:53Z</time>
      </trkpt>
      <trkpt lat="48.75812" lon="1.8273">
        <ele>116.5</ele>
        <time>2026-05-21T07:08:01Z</time>
      </trkpt>
      <trkpt lat="48.75818" lon="1.82719">
        <ele>117.5</ele>
        <time>2026-05-21T07:08:09Z</time>
      </trkpt>
      <trkpt lat="48.75823" lon="1.82708">
        <ele>118.3</ele>
        <time>2026-05-21T07:08:17Z</time>
      </trkpt>
      <trkpt lat="48.7583" lon="1.82697">
        <ele>118.8</ele>
        <time>2026-05-21T07:08:25Z</time>
      </trkpt>
      <trkpt lat="48.75835" lon="1.82684">
        <ele>119.1</ele>
        <time>2026-05-21T07:08:33Z</time>
      </trkpt>
      <trkpt lat="48.7584" lon="1.82671">
        <ele>119.3</ele>
        <time>2026-05-21T07:08:41Z</time>
      </trkpt>
      <trkpt lat="48.75845" lon="1.82659">
        <ele>119.9</ele>
        <time>2026-05-21T07:08:49Z</time>
      </trkpt>
      <trkpt lat="48.75849" lon="1.82645">
        <ele>120.7</ele>
        <time>2026-05-21T07:08:57Z</time>
      </trkpt>
      <trkpt lat="48.75855" lon="1.82633">
        <ele>121.4</ele>
        <time>2026-05-21T07:09:05Z</time>
      </trkpt>
      <trkpt lat="48.75861" lon="1.82621">
        <ele>122.3</ele>
        <time>2026-05-21T07:09:13Z</time>
      </trkpt>
      <trkpt lat="48.75868" lon="1.82612">
        <ele>122.9</ele>
        <time>2026-05-21T07:09:21Z</time>
      </trkpt>
      <trkpt lat="48.75875" lon="1.82604">
        <ele>123.4</ele>
        <time>2026-05-21T07:09:29Z</time>
      </trkpt>
      <trkpt lat="48.75882" lon="1.82594">
        <ele>123.8</ele>
        <time>2026-05-21T07:09:36Z</time>
      </trkpt>
      <trkpt lat="48.75889" lon="1.82585">
        <ele>124</ele>
        <time>2026-05-21T07:09:43Z</time>
      </trkpt>
      <trkpt lat="48.75896" lon="1.82574">
        <ele>124.1</ele>
        <time>2026-05-21T07:09:51Z</time>
      </trkpt>
      <trkpt lat="48.75904" lon="1.82565">
        <ele>124.1</ele>
        <time>2026-05-21T07:09:58Z</time>
      </trkpt>
      <trkpt lat="48.75911" lon="1.82554">
        <ele>124.3</ele>
        <time>2026-05-21T07:10:06Z</time>
      </trkpt>
      <trkpt lat="48.75918" lon="1.82544">
        <ele>124.4</ele>
        <time>2026-05-21T07:10:14Z</time>
      </trkpt>
      <trkpt lat="48.75925" lon="1.82534">
        <ele>124.8</ele>
        <time>2026-05-21T07:10:22Z</time>
      </trkpt>
      <trkpt lat="48.75934" lon="1.82525">
        <ele>125.1</ele>
        <time>2026-05-21T07:10:29Z</time>
      </trkpt>
      <trkpt lat="48.75938" lon="1.82513">
        <ele>125.5</ele>
        <time>2026-05-21T07:10:36Z</time>
      </trkpt>
      <trkpt lat="48.75933" lon="1.82502">
        <ele>125.9</ele>
        <time>2026-05-21T07:10:44Z</time>
      </trkpt>
      <trkpt lat="48.75924" lon="1.82495">
        <ele>126.3</ele>
        <time>2026-05-21T07:10:53Z</time>
      </trkpt>
      <trkpt lat="48.75917" lon="1.82487">
        <ele>127</ele>
        <time>2026-05-21T07:11:00Z</time>
      </trkpt>
      <trkpt lat="48.75908" lon="1.82483">
        <ele>127.7</ele>
        <time>2026-05-21T07:11:08Z</time>
      </trkpt>
      <trkpt lat="48.75899" lon="1.82479">
        <ele>128.3</ele>
        <time>2026-05-21T07:11:16Z</time>
      </trkpt>
      <trkpt lat="48.7589" lon="1.82472">
        <ele>129</ele>
        <time>2026-05-21T07:11:24Z</time>
      </trkpt>
      <trkpt lat="48.75881" lon="1.82466">
        <ele>129.2</ele>
        <time>2026-05-21T07:11:31Z</time>
      </trkpt>
      <trkpt lat="48.75872" lon="1.82461">
        <ele>129.4</ele>
        <time>2026-05-21T07:11:39Z</time>
      </trkpt>
      <trkpt lat="48.75863" lon="1.82454">
        <ele>129.6</ele>
        <time>2026-05-21T07:11:47Z</time>
      </trkpt>
      <trkpt lat="48.75854" lon="1.82448">
        <ele>129.6</ele>
        <time>2026-05-21T07:11:55Z</time>
      </trkpt>
      <trkpt lat="48.75846" lon="1.8244">
        <ele>129.6</ele>
        <time>2026-05-21T07:12:03Z</time>
      </trkpt>
      <trkpt lat="48.75839" lon="1.82431">
        <ele>129.7</ele>
        <time>2026-05-21T07:12:10Z</time>
      </trkpt>
      <trkpt lat="48.75831" lon="1.82422">
        <ele>129.7</ele>
        <time>2026-05-21T07:12:17Z</time>
      </trkpt>
      <trkpt lat="48.75824" lon="1.82412">
        <ele>129.6</ele>
        <time>2026-05-21T07:12:24Z</time>
      </trkpt>
      <trkpt lat="48.75817" lon="1.82403">
        <ele>129.8</ele>
        <time>2026-05-21T07:12:31Z</time>
      </trkpt>
      <trkpt lat="48.75809" lon="1.82395">
        <ele>129.8</ele>
        <time>2026-05-21T07:12:38Z</time>
      </trkpt>
      <trkpt lat="48.75802" lon="1.82387">
        <ele>129.7</ele>
        <time>2026-05-21T07:12:45Z</time>
      </trkpt>
      <trkpt lat="48.75794" lon="1.8238">
        <ele>129.4</ele>
        <time>2026-05-21T07:12:53Z</time>
      </trkpt>
      <trkpt lat="48.75787" lon="1.8237">
        <ele>129.4</ele>
        <time>2026-05-21T07:13:01Z</time>
      </trkpt>
      <trkpt lat="48.75781" lon="1.82361">
        <ele>129.3</ele>
        <time>2026-05-21T07:13:09Z</time>
      </trkpt>
      <trkpt lat="48.75773" lon="1.82352">
        <ele>128.8</ele>
        <time>2026-05-21T07:13:16Z</time>
      </trkpt>
      <trkpt lat="48.75766" lon="1.82343">
        <ele>128.4</ele>
        <time>2026-05-21T07:13:23Z</time>
      </trkpt>
      <trkpt lat="48.75757" lon="1.82336">
        <ele>127.7</ele>
        <time>2026-05-21T07:13:31Z</time>
      </trkpt>
      <trkpt lat="48.7575" lon="1.82328">
        <ele>127.4</ele>
        <time>2026-05-21T07:13:38Z</time>
      </trkpt>
      <trkpt lat="48.75742" lon="1.82321">
        <ele>127.3</ele>
        <time>2026-05-21T07:13:45Z</time>
      </trkpt>
      <trkpt lat="48.75734" lon="1.82313">
        <ele>127.3</ele>
        <time>2026-05-21T07:13:52Z</time>
      </trkpt>
      <trkpt lat="48.75726" lon="1.82305">
        <ele>127.3</ele>
        <time>2026-05-21T07:14:00Z</time>
      </trkpt>
      <trkpt lat="48.75718" lon="1.82296">
        <ele>127.7</ele>
        <time>2026-05-21T07:14:08Z</time>
      </trkpt>
      <trkpt lat="48.75712" lon="1.82285">
        <ele>128.5</ele>
        <time>2026-05-21T07:14:19Z</time>
      </trkpt>
      <trkpt lat="48.75713" lon="1.82271">
        <ele>129.3</ele>
        <time>2026-05-21T07:14:35Z</time>
      </trkpt>
      <trkpt lat="48.75717" lon="1.82258">
        <ele>129.7</ele>
        <time>2026-05-21T07:14:43Z</time>
      </trkpt>
      <trkpt lat="48.75723" lon="1.82245">
        <ele>130.4</ele>
        <time>2026-05-21T07:14:52Z</time>
      </trkpt>
      <trkpt lat="48.75729" lon="1.82233">
        <ele>131.4</ele>
        <time>2026-05-21T07:15:01Z</time>
      </trkpt>
      <trkpt lat="48.75736" lon="1.82224">
        <ele>132.3</ele>
        <time>2026-05-21T07:15:09Z</time>
      </trkpt>
      <trkpt lat="48.75743" lon="1.82214">
        <ele>133.3</ele>
        <time>2026-05-21T07:15:20Z</time>
      </trkpt>
      <trkpt lat="48.75752" lon="1.82211">
        <ele>134.1</ele>
        <time>2026-05-21T07:15:30Z</time>
      </trkpt>
      <trkpt lat="48.7576" lon="1.82218">
        <ele>134.5</ele>
        <time>2026-05-21T07:15:39Z</time>
      </trkpt>
      <trkpt lat="48.75767" lon="1.82228">
        <ele>134.5</ele>
        <time>2026-05-21T07:15:48Z</time>
      </trkpt>
      <trkpt lat="48.75775" lon="1.82237">
        <ele>134.7</ele>
        <time>2026-05-21T07:15:56Z</time>
      </trkpt>
      <trkpt lat="48.75783" lon="1.82244">
        <ele>135.1</ele>
        <time>2026-05-21T07:16:04Z</time>
      </trkpt>
      <trkpt lat="48.75791" lon="1.82251">
        <ele>135.8</ele>
        <time>2026-05-21T07:16:12Z</time>
      </trkpt>
      <trkpt lat="48.758" lon="1.82253">
        <ele>137</ele>
        <time>2026-05-21T07:16:21Z</time>
      </trkpt>
      <trkpt lat="48.75808" lon="1.8226">
        <ele>137.7</ele>
        <time>2026-05-21T07:16:30Z</time>
      </trkpt>
      <trkpt lat="48.75816" lon="1.82252">
        <ele>139.7</ele>
        <time>2026-05-21T07:16:38Z</time>
      </trkpt>
      <trkpt lat="48.75825" lon="1.82245">
        <ele>142.1</ele>
        <time>2026-05-21T07:16:44Z</time>
      </trkpt>
      <trkpt lat="48.75833" lon="1.82239">
        <ele>144.4</ele>
        <time>2026-05-21T07:16:52Z</time>
      </trkpt>
      <trkpt lat="48.75835" lon="1.82226">
        <ele>146.7</ele>
        <time>2026-05-21T07:16:59Z</time>
      </trkpt>
      <trkpt lat="48.75835" lon="1.8221">
        <ele>148.8</ele>
        <time>2026-05-21T07:17:07Z</time>
      </trkpt>
      <trkpt lat="48.75834" lon="1.82196">
        <ele>150.8</ele>
        <time>2026-05-21T07:17:16Z</time>
      </trkpt>
      <trkpt lat="48.7583" lon="1.82183">
        <ele>152.1</ele>
        <time>2026-05-21T07:17:25Z</time>
      </trkpt>
      <trkpt lat="48.75838" lon="1.82174">
        <ele>154</ele>
        <time>2026-05-21T07:17:49Z</time>
      </trkpt>
      <trkpt lat="48.75846" lon="1.82166">
        <ele>155.5</ele>
        <time>2026-05-21T07:18:00Z</time>
      </trkpt>
      <trkpt lat="48.75851" lon="1.82155">
        <ele>157.4</ele>
        <time>2026-05-21T07:18:08Z</time>
      </trkpt>
      <trkpt lat="48.75853" lon="1.82141">
        <ele>159.4</ele>
        <time>2026-05-21T07:18:16Z</time>
      </trkpt>
      <trkpt lat="48.75854" lon="1.82126">
        <ele>160.8</ele>
        <time>2026-05-21T07:18:25Z</time>
      </trkpt>
      <trkpt lat="48.75857" lon="1.82112">
        <ele>161.9</ele>
        <time>2026-05-21T07:18:34Z</time>
      </trkpt>
      <trkpt lat="48.75859" lon="1.82098">
        <ele>163</ele>
        <time>2026-05-21T07:18:43Z</time>
      </trkpt>
      <trkpt lat="48.75859" lon="1.82083">
        <ele>164.1</ele>
        <time>2026-05-21T07:18:52Z</time>
      </trkpt>
      <trkpt lat="48.75862" lon="1.82069">
        <ele>165</ele>
        <time>2026-05-21T07:19:01Z</time>
      </trkpt>
      <trkpt lat="48.75864" lon="1.82055">
        <ele>165.9</ele>
        <time>2026-05-21T07:19:09Z</time>
      </trkpt>
      <trkpt lat="48.75868" lon="1.82043">
        <ele>166.2</ele>
        <time>2026-05-21T07:19:18Z</time>
      </trkpt>
      <trkpt lat="48.75873" lon="1.82031">
        <ele>166.4</ele>
        <time>2026-05-21T07:19:26Z</time>
      </trkpt>
      <trkpt lat="48.75879" lon="1.82019">
        <ele>166.9</ele>
        <time>2026-05-21T07:19:34Z</time>
      </trkpt>
      <trkpt lat="48.75884" lon="1.82007">
        <ele>167.6</ele>
        <time>2026-05-21T07:19:42Z</time>
      </trkpt>
      <trkpt lat="48.75888" lon="1.81994">
        <ele>168.2</ele>
        <time>2026-05-21T07:19:49Z</time>
      </trkpt>
      <trkpt lat="48.75895" lon="1.81983">
        <ele>168.2</ele>
        <time>2026-05-21T07:19:57Z</time>
      </trkpt>
      <trkpt lat="48.759" lon="1.81971">
        <ele>168.2</ele>
        <time>2026-05-21T07:20:04Z</time>
      </trkpt>
      <trkpt lat="48.75905" lon="1.81959">
        <ele>168.1</ele>
        <time>2026-05-21T07:20:12Z</time>
      </trkpt>
      <trkpt lat="48.75909" lon="1.81948">
        <ele>168.2</ele>
        <time>2026-05-21T07:20:20Z</time>
      </trkpt>
      <trkpt lat="48.75916" lon="1.81938">
        <ele>168.3</ele>
        <time>2026-05-21T07:20:28Z</time>
      </trkpt>
      <trkpt lat="48.7592" lon="1.81926">
        <ele>168.5</ele>
        <time>2026-05-21T07:20:54Z</time>
      </trkpt>
      <trkpt lat="48.75921" lon="1.81911">
        <ele>168.8</ele>
        <time>2026-05-21T07:21:03Z</time>
      </trkpt>
      <trkpt lat="48.75918" lon="1.81897">
        <ele>168.9</ele>
        <time>2026-05-21T07:21:11Z</time>
      </trkpt>
      <trkpt lat="48.75918" lon="1.81883">
        <ele>169.2</ele>
        <time>2026-05-21T07:21:22Z</time>
      </trkpt>
      <trkpt lat="48.75917" lon="1.81869">
        <ele>169.7</ele>
        <time>2026-05-21T07:21:33Z</time>
      </trkpt>
      <trkpt lat="48.75916" lon="1.81854">
        <ele>170</ele>
        <time>2026-05-21T07:22:13Z</time>
      </trkpt>
      <trkpt lat="48.75915" lon="1.8184">
        <ele>170.1</ele>
        <time>2026-05-21T07:22:22Z</time>
      </trkpt>
      <trkpt lat="48.75917" lon="1.81826">
        <ele>170.3</ele>
        <time>2026-05-21T07:22:34Z</time>
      </trkpt>
      <trkpt lat="48.75921" lon="1.81813">
        <ele>170.6</ele>
        <time>2026-05-21T07:22:57Z</time>
      </trkpt>
      <trkpt lat="48.75922" lon="1.81799">
        <ele>170.9</ele>
        <time>2026-05-21T07:23:22Z</time>
      </trkpt>
      <trkpt lat="48.75922" lon="1.81784">
        <ele>171</ele>
        <time>2026-05-21T07:23:33Z</time>
      </trkpt>
      <trkpt lat="48.75921" lon="1.8177">
        <ele>171</ele>
        <time>2026-05-21T07:23:43Z</time>
      </trkpt>
      <trkpt lat="48.7592" lon="1.81755">
        <ele>171</ele>
        <time>2026-05-21T07:23:56Z</time>
      </trkpt>
      <trkpt lat="48.75923" lon="1.81742">
        <ele>171.2</ele>
        <time>2026-05-21T07:24:10Z</time>
      </trkpt>
      <trkpt lat="48.75922" lon="1.81727">
        <ele>171.7</ele>
        <time>2026-05-21T07:24:19Z</time>
      </trkpt>
      <trkpt lat="48.75921" lon="1.81713">
        <ele>171.9</ele>
        <time>2026-05-21T07:24:28Z</time>
      </trkpt>
      <trkpt lat="48.75923" lon="1.81699">
        <ele>172</ele>
        <time>2026-05-21T07:24:36Z</time>
      </trkpt>
      <trkpt lat="48.75922" lon="1.81684">
        <ele>172</ele>
        <time>2026-05-21T07:24:46Z</time>
      </trkpt>
      <trkpt lat="48.75917" lon="1.81671">
        <ele>172</ele>
        <time>2026-05-21T07:25:04Z</time>
      </trkpt>
      <trkpt lat="48.75925" lon="1.81665">
        <ele>172</ele>
        <time>2026-05-21T07:25:48Z</time>
      </trkpt>
      <trkpt lat="48.75929" lon="1.81652">
        <ele>172</ele>
        <time>2026-05-21T07:25:57Z</time>
      </trkpt>
      <trkpt lat="48.75934" lon="1.81639">
        <ele>172</ele>
        <time>2026-05-21T07:26:06Z</time>
      </trkpt>
      <trkpt lat="48.75938" lon="1.81626">
        <ele>172</ele>
        <time>2026-05-21T07:26:16Z</time>
      </trkpt>
      <trkpt lat="48.75941" lon="1.81612">
        <ele>172</ele>
        <time>2026-05-21T07:26:25Z</time>
      </trkpt>
      <trkpt lat="48.75942" lon="1.81597">
        <ele>172</ele>
        <time>2026-05-21T07:26:32Z</time>
      </trkpt>
      <trkpt lat="48.75944" lon="1.81583">
        <ele>172</ele>
        <time>2026-05-21T07:26:39Z</time>
      </trkpt>
      <trkpt lat="48.75943" lon="1.81569">
        <ele>172</ele>
        <time>2026-05-21T07:26:46Z</time>
      </trkpt>
      <trkpt lat="48.75943" lon="1.81555">
        <ele>172.1</ele>
        <time>2026-05-21T07:26:54Z</time>
      </trkpt>
      <trkpt lat="48.75942" lon="1.8154">
        <ele>172.1</ele>
        <time>2026-05-21T07:27:01Z</time>
      </trkpt>
      <trkpt lat="48.75935" lon="1.81529">
        <ele>172.3</ele>
        <time>2026-05-21T07:27:07Z</time>
      </trkpt>
      <trkpt lat="48.7593" lon="1.81517">
        <ele>172.7</ele>
        <time>2026-05-21T07:27:14Z</time>
      </trkpt>
      <trkpt lat="48.75924" lon="1.81505">
        <ele>173</ele>
        <time>2026-05-21T07:27:21Z</time>
      </trkpt>
      <trkpt lat="48.75922" lon="1.81491">
        <ele>173</ele>
        <time>2026-05-21T07:27:28Z</time>
      </trkpt>
      <trkpt lat="48.75917" lon="1.8148">
        <ele>173</ele>
        <time>2026-05-21T07:27:35Z</time>
      </trkpt>
      <trkpt lat="48.75912" lon="1.81467">
        <ele>173.2</ele>
        <time>2026-05-21T07:27:43Z</time>
      </trkpt>
      <trkpt lat="48.75906" lon="1.81455">
        <ele>173.4</ele>
        <time>2026-05-21T07:27:51Z</time>
      </trkpt>
      <trkpt lat="48.75898" lon="1.81447">
        <ele>173.7</ele>
        <time>2026-05-21T07:27:59Z</time>
      </trkpt>
      <trkpt lat="48.75889" lon="1.8144">
        <ele>174</ele>
        <time>2026-05-21T07:28:06Z</time>
      </trkpt>
      <trkpt lat="48.75881" lon="1.81431">
        <ele>174.1</ele>
        <time>2026-05-21T07:28:14Z</time>
      </trkpt>
      <trkpt lat="48.75872" lon="1.81423">
        <ele>174.5</ele>
        <time>2026-05-21T07:28:22Z</time>
      </trkpt>
      <trkpt lat="48.75865" lon="1.81414">
        <ele>174.9</ele>
        <time>2026-05-21T07:28:29Z</time>
      </trkpt>
      <trkpt lat="48.75856" lon="1.81406">
        <ele>175.1</ele>
        <time>2026-05-21T07:28:35Z</time>
      </trkpt>
      <trkpt lat="48.75847" lon="1.81397">
        <ele>175.3</ele>
        <time>2026-05-21T07:28:42Z</time>
      </trkpt>
      <trkpt lat="48.75839" lon="1.8139">
        <ele>175.8</ele>
        <time>2026-05-21T07:28:49Z</time>
      </trkpt>
      <trkpt lat="48.75831" lon="1.81382">
        <ele>176</ele>
        <time>2026-05-21T07:28:56Z</time>
      </trkpt>
      <trkpt lat="48.75823" lon="1.81374">
        <ele>176.2</ele>
        <time>2026-05-21T07:29:03Z</time>
      </trkpt>
      <trkpt lat="48.75815" lon="1.81367">
        <ele>176.5</ele>
        <time>2026-05-21T07:29:10Z</time>
      </trkpt>
      <trkpt lat="48.75806" lon="1.81359">
        <ele>177</ele>
        <time>2026-05-21T07:29:18Z</time>
      </trkpt>
      <trkpt lat="48.75797" lon="1.81353">
        <ele>177</ele>
        <time>2026-05-21T07:29:26Z</time>
      </trkpt>
      <trkpt lat="48.75788" lon="1.81346">
        <ele>177</ele>
        <time>2026-05-21T07:29:34Z</time>
      </trkpt>
      <trkpt lat="48.7578" lon="1.81336">
        <ele>177</ele>
        <time>2026-05-21T07:29:42Z</time>
      </trkpt>
      <trkpt lat="48.75773" lon="1.81327">
        <ele>177.2</ele>
        <time>2026-05-21T07:29:50Z</time>
      </trkpt>
      <trkpt lat="48.75765" lon="1.8132">
        <ele>177.5</ele>
        <time>2026-05-21T07:29:59Z</time>
      </trkpt>
      <trkpt lat="48.75757" lon="1.81312">
        <ele>177.8</ele>
        <time>2026-05-21T07:30:07Z</time>
      </trkpt>
      <trkpt lat="48.75749" lon="1.81302">
        <ele>177.9</ele>
        <time>2026-05-21T07:30:15Z</time>
      </trkpt>
      <trkpt lat="48.75741" lon="1.81295">
        <ele>177.4</ele>
        <time>2026-05-21T07:30:24Z</time>
      </trkpt>
      <trkpt lat="48.75738" lon="1.81308">
        <ele>177.6</ele>
        <time>2026-05-21T07:30:37Z</time>
      </trkpt>
      <trkpt lat="48.75746" lon="1.81317">
        <ele>177.9</ele>
        <time>2026-05-21T07:30:46Z</time>
      </trkpt>
      <trkpt lat="48.75755" lon="1.81322">
        <ele>177.8</ele>
        <time>2026-05-21T07:30:54Z</time>
      </trkpt>
      <trkpt lat="48.75763" lon="1.81329">
        <ele>177.5</ele>
        <time>2026-05-21T07:31:04Z</time>
      </trkpt>
      <trkpt lat="48.75771" lon="1.81337">
        <ele>177.2</ele>
        <time>2026-05-21T07:31:16Z</time>
      </trkpt>
      <trkpt lat="48.75768" lon="1.8135">
        <ele>177.1</ele>
        <time>2026-05-21T07:31:24Z</time>
      </trkpt>
      <trkpt lat="48.75763" lon="1.81362">
        <ele>177</ele>
        <time>2026-05-21T07:31:33Z</time>
      </trkpt>
      <trkpt lat="48.75759" lon="1.81375">
        <ele>177</ele>
        <time>2026-05-21T07:31:44Z</time>
      </trkpt>
      <trkpt lat="48.75753" lon="1.81387">
        <ele>177</ele>
        <time>2026-05-21T07:31:54Z</time>
      </trkpt>
      <trkpt lat="48.75747" lon="1.81398">
        <ele>177</ele>
        <time>2026-05-21T07:32:03Z</time>
      </trkpt>
      <trkpt lat="48.7574" lon="1.81408">
        <ele>177</ele>
        <time>2026-05-21T07:32:12Z</time>
      </trkpt>
      <trkpt lat="48.75734" lon="1.8142">
        <ele>177</ele>
        <time>2026-05-21T07:32:20Z</time>
      </trkpt>
      <trkpt lat="48.7573" lon="1.81433">
        <ele>177</ele>
        <time>2026-05-21T07:32:28Z</time>
      </trkpt>
      <trkpt lat="48.75725" lon="1.81444">
        <ele>177</ele>
        <time>2026-05-21T07:32:36Z</time>
      </trkpt>
      <trkpt lat="48.75719" lon="1.81457">
        <ele>177</ele>
        <time>2026-05-21T07:32:44Z</time>
      </trkpt>
      <trkpt lat="48.75714" lon="1.81469">
        <ele>177</ele>
        <time>2026-05-21T07:32:52Z</time>
      </trkpt>
      <trkpt lat="48.75708" lon="1.8148">
        <ele>176.9</ele>
        <time>2026-05-21T07:33:00Z</time>
      </trkpt>
      <trkpt lat="48.75702" lon="1.81491">
        <ele>176.8</ele>
        <time>2026-05-21T07:33:07Z</time>
      </trkpt>
      <trkpt lat="48.75697" lon="1.81503">
        <ele>176.8</ele>
        <time>2026-05-21T07:33:14Z</time>
      </trkpt>
      <trkpt lat="48.75693" lon="1.81516">
        <ele>176.4</ele>
        <time>2026-05-21T07:33:21Z</time>
      </trkpt>
      <trkpt lat="48.75687" lon="1.81528">
        <ele>176.3</ele>
        <time>2026-05-21T07:33:28Z</time>
      </trkpt>
      <trkpt lat="48.75682" lon="1.81539">
        <ele>176.3</ele>
        <time>2026-05-21T07:33:35Z</time>
      </trkpt>
      <trkpt lat="48.75677" lon="1.81551">
        <ele>176.1</ele>
        <time>2026-05-21T07:33:42Z</time>
      </trkpt>
      <trkpt lat="48.75673" lon="1.81564">
        <ele>175.9</ele>
        <time>2026-05-21T07:33:50Z</time>
      </trkpt>
      <trkpt lat="48.75668" lon="1.81576">
        <ele>176</ele>
        <time>2026-05-21T07:33:57Z</time>
      </trkpt>
      <trkpt lat="48.75662" lon="1.81588">
        <ele>176.1</ele>
        <time>2026-05-21T07:34:04Z</time>
      </trkpt>
      <trkpt lat="48.75655" lon="1.81597">
        <ele>176.2</ele>
        <time>2026-05-21T07:34:12Z</time>
      </trkpt>
      <trkpt lat="48.75654" lon="1.81612">
        <ele>176</ele>
        <time>2026-05-21T07:34:19Z</time>
      </trkpt>
      <trkpt lat="48.75648" lon="1.81624">
        <ele>176</ele>
        <time>2026-05-21T07:34:27Z</time>
      </trkpt>
      <trkpt lat="48.75642" lon="1.81635">
        <ele>176</ele>
        <time>2026-05-21T07:34:35Z</time>
      </trkpt>
      <trkpt lat="48.75637" lon="1.81648">
        <ele>176</ele>
        <time>2026-05-21T07:34:43Z</time>
      </trkpt>
      <trkpt lat="48.75632" lon="1.8166">
        <ele>175.8</ele>
        <time>2026-05-21T07:34:50Z</time>
      </trkpt>
      <trkpt lat="48.75626" lon="1.81671">
        <ele>175.5</ele>
        <time>2026-05-21T07:34:57Z</time>
      </trkpt>
      <trkpt lat="48.75621" lon="1.81683">
        <ele>175.1</ele>
        <time>2026-05-21T07:35:04Z</time>
      </trkpt>
      <trkpt lat="48.75615" lon="1.81695">
        <ele>175</ele>
        <time>2026-05-21T07:35:11Z</time>
      </trkpt>
      <trkpt lat="48.7561" lon="1.81706">
        <ele>175</ele>
        <time>2026-05-21T07:35:18Z</time>
      </trkpt>
      <trkpt lat="48.75605" lon="1.8172">
        <ele>174.8</ele>
        <time>2026-05-21T07:35:26Z</time>
      </trkpt>
      <trkpt lat="48.756" lon="1.81732">
        <ele>174.2</ele>
        <time>2026-05-21T07:35:33Z</time>
      </trkpt>
      <trkpt lat="48.75591" lon="1.81732">
        <ele>173.9</ele>
        <time>2026-05-21T07:35:44Z</time>
      </trkpt>
      <trkpt lat="48.75584" lon="1.81722">
        <ele>174</ele>
        <time>2026-05-21T07:35:54Z</time>
      </trkpt>
      <trkpt lat="48.75577" lon="1.81712">
        <ele>173.9</ele>
        <time>2026-05-21T07:36:03Z</time>
      </trkpt>
      <trkpt lat="48.75569" lon="1.81706">
        <ele>173.5</ele>
        <time>2026-05-21T07:36:10Z</time>
      </trkpt>
      <trkpt lat="48.75563" lon="1.81694">
        <ele>173.5</ele>
        <time>2026-05-21T07:36:20Z</time>
      </trkpt>
      <trkpt lat="48.75557" lon="1.81684">
        <ele>173.5</ele>
        <time>2026-05-21T07:36:28Z</time>
      </trkpt>
      <trkpt lat="48.75552" lon="1.81672">
        <ele>173.5</ele>
        <time>2026-05-21T07:36:37Z</time>
      </trkpt>
      <trkpt lat="48.75543" lon="1.81664">
        <ele>173.2</ele>
        <time>2026-05-21T07:36:45Z</time>
      </trkpt>
      <trkpt lat="48.75536" lon="1.81655">
        <ele>173</ele>
        <time>2026-05-21T07:36:52Z</time>
      </trkpt>
      <trkpt lat="48.7553" lon="1.81643">
        <ele>173</ele>
        <time>2026-05-21T07:37:01Z</time>
      </trkpt>
      <trkpt lat="48.75525" lon="1.81631">
        <ele>172.1</ele>
        <time>2026-05-21T07:37:11Z</time>
      </trkpt>
      <trkpt lat="48.75526" lon="1.81617">
        <ele>172.5</ele>
        <time>2026-05-21T07:37:21Z</time>
      </trkpt>
      <trkpt lat="48.75531" lon="1.81606">
        <ele>173.2</ele>
        <time>2026-05-21T07:37:32Z</time>
      </trkpt>
      <trkpt lat="48.75535" lon="1.81592">
        <ele>173.3</ele>
        <time>2026-05-21T07:37:41Z</time>
      </trkpt>
      <trkpt lat="48.75538" lon="1.81579">
        <ele>173.2</ele>
        <time>2026-05-21T07:37:50Z</time>
      </trkpt>
      <trkpt lat="48.75545" lon="1.81569">
        <ele>173.8</ele>
        <time>2026-05-21T07:37:58Z</time>
      </trkpt>
      <trkpt lat="48.75551" lon="1.81559">
        <ele>174.4</ele>
        <time>2026-05-21T07:38:06Z</time>
      </trkpt>
      <trkpt lat="48.75556" lon="1.81546">
        <ele>174.3</ele>
        <time>2026-05-21T07:38:13Z</time>
      </trkpt>
      <trkpt lat="48.75558" lon="1.81531">
        <ele>173.4</ele>
        <time>2026-05-21T07:38:21Z</time>
      </trkpt>
      <trkpt lat="48.75563" lon="1.81519">
        <ele>173.3</ele>
        <time>2026-05-21T07:38:29Z</time>
      </trkpt>
      <trkpt lat="48.75567" lon="1.81505">
        <ele>173.2</ele>
        <time>2026-05-21T07:38:37Z</time>
      </trkpt>
      <trkpt lat="48.75569" lon="1.8149">
        <ele>172.7</ele>
        <time>2026-05-21T07:38:45Z</time>
      </trkpt>
      <trkpt lat="48.75569" lon="1.81476">
        <ele>171.7</ele>
        <time>2026-05-21T07:38:53Z</time>
      </trkpt>
      <trkpt lat="48.75572" lon="1.81461">
        <ele>170.3</ele>
        <time>2026-05-21T07:39:03Z</time>
      </trkpt>
      <trkpt lat="48.75579" lon="1.81452">
        <ele>170.7</ele>
        <time>2026-05-21T07:39:14Z</time>
      </trkpt>
      <trkpt lat="48.75588" lon="1.81448">
        <ele>172</ele>
        <time>2026-05-21T07:39:26Z</time>
      </trkpt>
      <trkpt lat="48.75596" lon="1.81442">
        <ele>172.6</ele>
        <time>2026-05-21T07:39:37Z</time>
      </trkpt>
      <trkpt lat="48.75604" lon="1.81432">
        <ele>173.2</ele>
        <time>2026-05-21T07:39:47Z</time>
      </trkpt>
      <trkpt lat="48.75613" lon="1.81429">
        <ele>174.6</ele>
        <time>2026-05-21T07:39:56Z</time>
      </trkpt>
      <trkpt lat="48.75619" lon="1.81419">
        <ele>174.9</ele>
        <time>2026-05-21T07:40:04Z</time>
      </trkpt>
      <trkpt lat="48.75625" lon="1.81408">
        <ele>174.9</ele>
        <time>2026-05-21T07:40:11Z</time>
      </trkpt>
      <trkpt lat="48.75629" lon="1.81396">
        <ele>174.7</ele>
        <time>2026-05-21T07:40:18Z</time>
      </trkpt>
      <trkpt lat="48.75631" lon="1.81381">
        <ele>174</ele>
        <time>2026-05-21T07:40:26Z</time>
      </trkpt>
      <trkpt lat="48.75634" lon="1.81367">
        <ele>173.3</ele>
        <time>2026-05-21T07:40:34Z</time>
      </trkpt>
      <trkpt lat="48.75639" lon="1.81354">
        <ele>173.2</ele>
        <time>2026-05-21T07:40:43Z</time>
      </trkpt>
      <trkpt lat="48.75646" lon="1.81345">
        <ele>173.2</ele>
        <time>2026-05-21T07:40:53Z</time>
      </trkpt>
      <trkpt lat="48.75652" lon="1.81334">
        <ele>173</ele>
        <time>2026-05-21T07:41:03Z</time>
      </trkpt>
      <trkpt lat="48.75659" lon="1.81323">
        <ele>172.8</ele>
        <time>2026-05-21T07:41:13Z</time>
      </trkpt>
      <trkpt lat="48.75666" lon="1.81314">
        <ele>173.5</ele>
        <time>2026-05-21T07:41:22Z</time>
      </trkpt>
      <trkpt lat="48.75672" lon="1.81302">
        <ele>173.3</ele>
        <time>2026-05-21T07:41:31Z</time>
      </trkpt>
      <trkpt lat="48.75678" lon="1.81291">
        <ele>172.9</ele>
        <time>2026-05-21T07:41:39Z</time>
      </trkpt>
      <trkpt lat="48.75686" lon="1.81285">
        <ele>173.9</ele>
        <time>2026-05-21T07:41:49Z</time>
      </trkpt>
      <trkpt lat="48.75692" lon="1.81275">
        <ele>174.2</ele>
        <time>2026-05-21T07:41:57Z</time>
      </trkpt>
      <trkpt lat="48.75701" lon="1.81269">
        <ele>174.9</ele>
        <time>2026-05-21T07:42:06Z</time>
      </trkpt>
      <trkpt lat="48.75707" lon="1.8128">
        <ele>176</ele>
        <time>2026-05-21T07:42:26Z</time>
      </trkpt>
      <trkpt lat="48.75715" lon="1.81273">
        <ele>176.3</ele>
        <time>2026-05-21T07:43:24Z</time>
      </trkpt>
      <trkpt lat="48.75716" lon="1.81259">
        <ele>175.8</ele>
        <time>2026-05-21T07:43:33Z</time>
      </trkpt>
      <trkpt lat="48.75718" lon="1.81246">
        <ele>175.3</ele>
        <time>2026-05-21T07:44:35Z</time>
      </trkpt>
      <trkpt lat="48.75722" lon="1.81233">
        <ele>175.4</ele>
        <time>2026-05-21T07:44:46Z</time>
      </trkpt>
      <trkpt lat="48.75727" lon="1.81221">
        <ele>175.3</ele>
        <time>2026-05-21T07:44:55Z</time>
      </trkpt>
      <trkpt lat="48.75732" lon="1.81207">
        <ele>175.2</ele>
        <time>2026-05-21T07:45:04Z</time>
      </trkpt>
      <trkpt lat="48.75737" lon="1.81196">
        <ele>175.1</ele>
        <time>2026-05-21T07:45:12Z</time>
      </trkpt>
      <trkpt lat="48.75743" lon="1.81185">
        <ele>175.3</ele>
        <time>2026-05-21T07:45:20Z</time>
      </trkpt>
      <trkpt lat="48.75748" lon="1.81173">
        <ele>175.8</ele>
        <time>2026-05-21T07:45:29Z</time>
      </trkpt>
      <trkpt lat="48.75753" lon="1.81159">
        <ele>175.6</ele>
        <time>2026-05-21T07:45:37Z</time>
      </trkpt>
      <trkpt lat="48.75757" lon="1.81146">
        <ele>175</ele>
        <time>2026-05-21T07:45:45Z</time>
      </trkpt>
      <trkpt lat="48.75762" lon="1.81133">
        <ele>174.6</ele>
        <time>2026-05-21T07:45:52Z</time>
      </trkpt>
      <trkpt lat="48.75767" lon="1.81122">
        <ele>174.7</ele>
        <time>2026-05-21T07:45:59Z</time>
      </trkpt>
      <trkpt lat="48.75772" lon="1.81109">
        <ele>175</ele>
        <time>2026-05-21T07:46:08Z</time>
      </trkpt>
      <trkpt lat="48.75777" lon="1.81097">
        <ele>174.9</ele>
        <time>2026-05-21T07:46:15Z</time>
      </trkpt>
      <trkpt lat="48.75782" lon="1.81084">
        <ele>174.3</ele>
        <time>2026-05-21T07:46:23Z</time>
      </trkpt>
      <trkpt lat="48.75787" lon="1.81072">
        <ele>174</ele>
        <time>2026-05-21T07:46:31Z</time>
      </trkpt>
      <trkpt lat="48.75792" lon="1.8106">
        <ele>173.8</ele>
        <time>2026-05-21T07:46:38Z</time>
      </trkpt>
      <trkpt lat="48.75796" lon="1.81047">
        <ele>173.5</ele>
        <time>2026-05-21T07:46:45Z</time>
      </trkpt>
      <trkpt lat="48.75801" lon="1.81034">
        <ele>173.4</ele>
        <time>2026-05-21T07:46:53Z</time>
      </trkpt>
      <trkpt lat="48.75807" lon="1.81022">
        <ele>173.7</ele>
        <time>2026-05-21T07:47:00Z</time>
      </trkpt>
      <trkpt lat="48.7581" lon="1.81009">
        <ele>173.1</ele>
        <time>2026-05-21T07:47:06Z</time>
      </trkpt>
      <trkpt lat="48.75815" lon="1.80996">
        <ele>172.7</ele>
        <time>2026-05-21T07:47:13Z</time>
      </trkpt>
      <trkpt lat="48.75821" lon="1.80984">
        <ele>172.6</ele>
        <time>2026-05-21T07:47:18Z</time>
      </trkpt>
      <trkpt lat="48.75827" lon="1.80972">
        <ele>172.9</ele>
        <time>2026-05-21T07:47:27Z</time>
      </trkpt>
      <trkpt lat="48.75832" lon="1.80961">
        <ele>172.8</ele>
        <time>2026-05-21T07:47:34Z</time>
      </trkpt>
      <trkpt lat="48.75836" lon="1.80948">
        <ele>172.6</ele>
        <time>2026-05-21T07:47:42Z</time>
      </trkpt>
      <trkpt lat="48.75841" lon="1.80936">
        <ele>172.7</ele>
        <time>2026-05-21T07:47:49Z</time>
      </trkpt>
      <trkpt lat="48.75848" lon="1.80925">
        <ele>173</ele>
        <time>2026-05-21T07:47:58Z</time>
      </trkpt>
      <trkpt lat="48.75853" lon="1.80913">
        <ele>173.4</ele>
        <time>2026-05-21T07:48:08Z</time>
      </trkpt>
      <trkpt lat="48.75862" lon="1.80906">
        <ele>174.7</ele>
        <time>2026-05-21T07:48:17Z</time>
      </trkpt>
      <trkpt lat="48.7587" lon="1.80897">
        <ele>175.1</ele>
        <time>2026-05-21T07:48:26Z</time>
      </trkpt>
      <trkpt lat="48.75876" lon="1.80885">
        <ele>175.5</ele>
        <time>2026-05-21T07:48:34Z</time>
      </trkpt>
      <trkpt lat="48.75881" lon="1.80872">
        <ele>175.5</ele>
        <time>2026-05-21T07:48:42Z</time>
      </trkpt>
      <trkpt lat="48.75884" lon="1.80858">
        <ele>175.5</ele>
        <time>2026-05-21T07:48:51Z</time>
      </trkpt>
      <trkpt lat="48.75888" lon="1.80844">
        <ele>175.8</ele>
        <time>2026-05-21T07:48:58Z</time>
      </trkpt>
      <trkpt lat="48.75887" lon="1.8083">
        <ele>175.7</ele>
        <time>2026-05-21T07:49:04Z</time>
      </trkpt>
      <trkpt lat="48.75888" lon="1.80815">
        <ele>175.8</ele>
        <time>2026-05-21T07:49:11Z</time>
      </trkpt>
      <trkpt lat="48.75889" lon="1.808">
        <ele>176</ele>
        <time>2026-05-21T07:49:18Z</time>
      </trkpt>
      <trkpt lat="48.75891" lon="1.80786">
        <ele>176.1</ele>
        <time>2026-05-21T07:49:25Z</time>
      </trkpt>
      <trkpt lat="48.75893" lon="1.80772">
        <ele>176</ele>
        <time>2026-05-21T07:49:32Z</time>
      </trkpt>
      <trkpt lat="48.75897" lon="1.80756">
        <ele>175.8</ele>
        <time>2026-05-21T07:49:39Z</time>
      </trkpt>
      <trkpt lat="48.759" lon="1.80742">
        <ele>175.7</ele>
        <time>2026-05-21T07:49:46Z</time>
      </trkpt>
      <trkpt lat="48.75903" lon="1.80729">
        <ele>175.7</ele>
        <time>2026-05-21T07:49:53Z</time>
      </trkpt>
      <trkpt lat="48.75904" lon="1.80715">
        <ele>175.6</ele>
        <time>2026-05-21T07:50:00Z</time>
      </trkpt>
      <trkpt lat="48.75906" lon="1.80701">
        <ele>175.8</ele>
        <time>2026-05-21T07:50:07Z</time>
      </trkpt>
      <trkpt lat="48.75898" lon="1.80692">
        <ele>175</ele>
        <time>2026-05-21T07:50:13Z</time>
      </trkpt>
      <trkpt lat="48.7589" lon="1.80686">
        <ele>174.1</ele>
        <time>2026-05-21T07:50:19Z</time>
      </trkpt>
      <trkpt lat="48.75882" lon="1.80677">
        <ele>172.7</ele>
        <time>2026-05-21T07:50:26Z</time>
      </trkpt>
      <trkpt lat="48.75873" lon="1.80669">
        <ele>171.1</ele>
        <time>2026-05-21T07:50:34Z</time>
      </trkpt>
      <trkpt lat="48.75865" lon="1.80661">
        <ele>170</ele>
        <time>2026-05-21T07:50:41Z</time>
      </trkpt>
      <trkpt lat="48.75856" lon="1.80657">
        <ele>168.6</ele>
        <time>2026-05-21T07:50:48Z</time>
      </trkpt>
      <trkpt lat="48.75847" lon="1.80655">
        <ele>166.8</ele>
        <time>2026-05-21T07:50:55Z</time>
      </trkpt>
      <trkpt lat="48.75837" lon="1.80651">
        <ele>165</ele>
        <time>2026-05-21T07:51:03Z</time>
      </trkpt>
      <trkpt lat="48.7583" lon="1.80641">
        <ele>164.1</ele>
        <time>2026-05-21T07:51:11Z</time>
      </trkpt>
      <trkpt lat="48.75826" lon="1.80627">
        <ele>163.7</ele>
        <time>2026-05-21T07:51:20Z</time>
      </trkpt>
      <trkpt lat="48.75825" lon="1.80613">
        <ele>163.8</ele>
        <time>2026-05-21T07:51:28Z</time>
      </trkpt>
      <trkpt lat="48.75828" lon="1.80598">
        <ele>164.4</ele>
        <time>2026-05-21T07:51:37Z</time>
      </trkpt>
      <trkpt lat="48.75827" lon="1.80585">
        <ele>163.9</ele>
        <time>2026-05-21T07:51:44Z</time>
      </trkpt>
      <trkpt lat="48.75821" lon="1.80573">
        <ele>162.4</ele>
        <time>2026-05-21T07:51:52Z</time>
      </trkpt>
      <trkpt lat="48.75812" lon="1.80572">
        <ele>160.9</ele>
        <time>2026-05-21T07:51:59Z</time>
      </trkpt>
      <trkpt lat="48.75803" lon="1.80564">
        <ele>159.9</ele>
        <time>2026-05-21T07:52:09Z</time>
      </trkpt>
      <trkpt lat="48.75794" lon="1.80566">
        <ele>159.3</ele>
        <time>2026-05-21T07:52:28Z</time>
      </trkpt>
      <trkpt lat="48.75784" lon="1.80565">
        <ele>158.7</ele>
        <time>2026-05-21T07:52:40Z</time>
      </trkpt>
      <trkpt lat="48.75776" lon="1.80562">
        <ele>158.6</ele>
        <time>2026-05-21T07:52:50Z</time>
      </trkpt>
      <trkpt lat="48.75766" lon="1.80559">
        <ele>158.8</ele>
        <time>2026-05-21T07:53:00Z</time>
      </trkpt>
      <trkpt lat="48.75757" lon="1.80554">
        <ele>159</ele>
        <time>2026-05-21T07:53:10Z</time>
      </trkpt>
      <trkpt lat="48.75752" lon="1.80566">
        <ele>158.6</ele>
        <time>2026-05-21T07:53:21Z</time>
      </trkpt>
      <trkpt lat="48.75751" lon="1.8058">
        <ele>158.1</ele>
        <time>2026-05-21T07:53:31Z</time>
      </trkpt>
      <trkpt lat="48.75755" lon="1.80593">
        <ele>157.1</ele>
        <time>2026-05-21T07:53:39Z</time>
      </trkpt>
      <trkpt lat="48.75755" lon="1.80607">
        <ele>156.1</ele>
        <time>2026-05-21T07:53:47Z</time>
      </trkpt>
      <trkpt lat="48.75756" lon="1.80622">
        <ele>155.4</ele>
        <time>2026-05-21T07:53:55Z</time>
      </trkpt>
      <trkpt lat="48.75759" lon="1.80635">
        <ele>154.8</ele>
        <time>2026-05-21T07:54:03Z</time>
      </trkpt>
      <trkpt lat="48.75763" lon="1.80647">
        <ele>154.7</ele>
        <time>2026-05-21T07:54:11Z</time>
      </trkpt>
      <trkpt lat="48.75767" lon="1.80661">
        <ele>154.7</ele>
        <time>2026-05-21T07:54:20Z</time>
      </trkpt>
      <trkpt lat="48.75769" lon="1.80675">
        <ele>154.7</ele>
        <time>2026-05-21T07:54:28Z</time>
      </trkpt>
      <trkpt lat="48.75769" lon="1.8069">
        <ele>154.6</ele>
        <time>2026-05-21T07:54:36Z</time>
      </trkpt>
      <trkpt lat="48.75767" lon="1.80704">
        <ele>154.4</ele>
        <time>2026-05-21T07:54:45Z</time>
      </trkpt>
      <trkpt lat="48.75767" lon="1.80719">
        <ele>153.9</ele>
        <time>2026-05-21T07:54:53Z</time>
      </trkpt>
      <trkpt lat="48.75766" lon="1.80733">
        <ele>153.5</ele>
        <time>2026-05-21T07:55:01Z</time>
      </trkpt>
      <trkpt lat="48.75764" lon="1.80747">
        <ele>153.1</ele>
        <time>2026-05-21T07:55:10Z</time>
      </trkpt>
      <trkpt lat="48.75762" lon="1.80761">
        <ele>152.8</ele>
        <time>2026-05-21T07:55:21Z</time>
      </trkpt>
      <trkpt lat="48.75758" lon="1.80774">
        <ele>152.6</ele>
        <time>2026-05-21T07:55:34Z</time>
      </trkpt>
      <trkpt lat="48.75757" lon="1.80788">
        <ele>152.1</ele>
        <time>2026-05-21T07:55:42Z</time>
      </trkpt>
      <trkpt lat="48.75754" lon="1.80802">
        <ele>151.8</ele>
        <time>2026-05-21T07:55:50Z</time>
      </trkpt>
      <trkpt lat="48.75751" lon="1.80816">
        <ele>151.6</ele>
        <time>2026-05-21T07:55:59Z</time>
      </trkpt>
      <trkpt lat="48.75748" lon="1.80831">
        <ele>151.2</ele>
        <time>2026-05-21T07:56:07Z</time>
      </trkpt>
      <trkpt lat="48.75747" lon="1.80845">
        <ele>150.8</ele>
        <time>2026-05-21T07:56:14Z</time>
      </trkpt>
      <trkpt lat="48.75745" lon="1.8086">
        <ele>150.4</ele>
        <time>2026-05-21T07:56:22Z</time>
      </trkpt>
      <trkpt lat="48.75741" lon="1.80873">
        <ele>150</ele>
        <time>2026-05-21T07:56:31Z</time>
      </trkpt>
      <trkpt lat="48.75735" lon="1.80885">
        <ele>149.7</ele>
        <time>2026-05-21T07:56:39Z</time>
      </trkpt>
      <trkpt lat="48.75728" lon="1.80895">
        <ele>149.4</ele>
        <time>2026-05-21T07:56:47Z</time>
      </trkpt>
      <trkpt lat="48.75722" lon="1.80906">
        <ele>148.8</ele>
        <time>2026-05-21T07:56:55Z</time>
      </trkpt>
      <trkpt lat="48.75715" lon="1.80916">
        <ele>148.6</ele>
        <time>2026-05-21T07:57:03Z</time>
      </trkpt>
      <trkpt lat="48.75706" lon="1.80921">
        <ele>148.9</ele>
        <time>2026-05-21T07:57:16Z</time>
      </trkpt>
      <trkpt lat="48.75699" lon="1.80931">
        <ele>148.8</ele>
        <time>2026-05-21T07:57:26Z</time>
      </trkpt>
      <trkpt lat="48.75691" lon="1.8094">
        <ele>148.7</ele>
        <time>2026-05-21T07:57:34Z</time>
      </trkpt>
      <trkpt lat="48.75684" lon="1.80949">
        <ele>148.9</ele>
        <time>2026-05-21T07:57:42Z</time>
      </trkpt>
      <trkpt lat="48.75677" lon="1.80958">
        <ele>149.3</ele>
        <time>2026-05-21T07:57:50Z</time>
      </trkpt>
      <trkpt lat="48.75669" lon="1.80966">
        <ele>149.8</ele>
        <time>2026-05-21T07:57:57Z</time>
      </trkpt>
      <trkpt lat="48.75663" lon="1.80976">
        <ele>150.2</ele>
        <time>2026-05-21T07:58:05Z</time>
      </trkpt>
      <trkpt lat="48.75654" lon="1.80984">
        <ele>150.7</ele>
        <time>2026-05-21T07:58:13Z</time>
      </trkpt>
      <trkpt lat="48.75647" lon="1.80993">
        <ele>151.2</ele>
        <time>2026-05-21T07:58:21Z</time>
      </trkpt>
      <trkpt lat="48.7564" lon="1.81003">
        <ele>151.7</ele>
        <time>2026-05-21T07:58:29Z</time>
      </trkpt>
      <trkpt lat="48.75633" lon="1.81014">
        <ele>151.7</ele>
        <time>2026-05-21T07:58:37Z</time>
      </trkpt>
      <trkpt lat="48.75625" lon="1.81023">
        <ele>151.8</ele>
        <time>2026-05-21T07:58:45Z</time>
      </trkpt>
      <trkpt lat="48.75619" lon="1.81034">
        <ele>151.7</ele>
        <time>2026-05-21T07:58:52Z</time>
      </trkpt>
      <trkpt lat="48.75612" lon="1.81045">
        <ele>151.6</ele>
        <time>2026-05-21T07:58:59Z</time>
      </trkpt>
      <trkpt lat="48.75604" lon="1.81055">
        <ele>151.5</ele>
        <time>2026-05-21T07:59:09Z</time>
      </trkpt>
      <trkpt lat="48.75596" lon="1.81062">
        <ele>151.8</ele>
        <time>2026-05-21T07:59:17Z</time>
      </trkpt>
      <trkpt lat="48.75589" lon="1.81072">
        <ele>151.9</ele>
        <time>2026-05-21T07:59:25Z</time>
      </trkpt>
      <trkpt lat="48.75582" lon="1.81081">
        <ele>152.1</ele>
        <time>2026-05-21T07:59:32Z</time>
      </trkpt>
      <trkpt lat="48.75575" lon="1.81091">
        <ele>151.5</ele>
        <time>2026-05-21T07:59:39Z</time>
      </trkpt>
      <trkpt lat="48.75567" lon="1.811">
        <ele>151.1</ele>
        <time>2026-05-21T07:59:46Z</time>
      </trkpt>
      <trkpt lat="48.7556" lon="1.81109">
        <ele>150.9</ele>
        <time>2026-05-21T07:59:53Z</time>
      </trkpt>
      <trkpt lat="48.75551" lon="1.81116">
        <ele>150.7</ele>
        <time>2026-05-21T08:00:01Z</time>
      </trkpt>
      <trkpt lat="48.75544" lon="1.81125">
        <ele>150</ele>
        <time>2026-05-21T08:00:08Z</time>
      </trkpt>
      <trkpt lat="48.75537" lon="1.81135">
        <ele>149.2</ele>
        <time>2026-05-21T08:00:18Z</time>
      </trkpt>
      <trkpt lat="48.75531" lon="1.81147">
        <ele>148.7</ele>
        <time>2026-05-21T08:00:26Z</time>
      </trkpt>
      <trkpt lat="48.75524" lon="1.81156">
        <ele>148.4</ele>
        <time>2026-05-21T08:00:34Z</time>
      </trkpt>
      <trkpt lat="48.75518" lon="1.81167">
        <ele>148</ele>
        <time>2026-05-21T08:00:42Z</time>
      </trkpt>
      <trkpt lat="48.75511" lon="1.81176">
        <ele>147.5</ele>
        <time>2026-05-21T08:00:49Z</time>
      </trkpt>
      <trkpt lat="48.75505" lon="1.81187">
        <ele>147.1</ele>
        <time>2026-05-21T08:00:56Z</time>
      </trkpt>
      <trkpt lat="48.75497" lon="1.81196">
        <ele>146.9</ele>
        <time>2026-05-21T08:01:05Z</time>
      </trkpt>
      <trkpt lat="48.7549" lon="1.81205">
        <ele>146.4</ele>
        <time>2026-05-21T08:01:13Z</time>
      </trkpt>
      <trkpt lat="48.75482" lon="1.81213">
        <ele>146.1</ele>
        <time>2026-05-21T08:01:20Z</time>
      </trkpt>
      <trkpt lat="48.75473" lon="1.8122">
        <ele>146.1</ele>
        <time>2026-05-21T08:01:29Z</time>
      </trkpt>
      <trkpt lat="48.75466" lon="1.8123">
        <ele>145.4</ele>
        <time>2026-05-21T08:01:38Z</time>
      </trkpt>
      <trkpt lat="48.7546" lon="1.81241">
        <ele>144.6</ele>
        <time>2026-05-21T08:01:46Z</time>
      </trkpt>
      <trkpt lat="48.75457" lon="1.81255">
        <ele>143.7</ele>
        <time>2026-05-21T08:01:54Z</time>
      </trkpt>
      <trkpt lat="48.75447" lon="1.81258">
        <ele>143.7</ele>
        <time>2026-05-21T08:02:05Z</time>
      </trkpt>
      <trkpt lat="48.75443" lon="1.8127">
        <ele>143.2</ele>
        <time>2026-05-21T08:02:11Z</time>
      </trkpt>
      <trkpt lat="48.75436" lon="1.8128">
        <ele>142.6</ele>
        <time>2026-05-21T08:02:19Z</time>
      </trkpt>
      <trkpt lat="48.75431" lon="1.81293">
        <ele>141.7</ele>
        <time>2026-05-21T08:02:27Z</time>
      </trkpt>
      <trkpt lat="48.75425" lon="1.81306">
        <ele>141</ele>
        <time>2026-05-21T08:02:35Z</time>
      </trkpt>
      <trkpt lat="48.75423" lon="1.8132">
        <ele>140.5</ele>
        <time>2026-05-21T08:02:43Z</time>
      </trkpt>
      <trkpt lat="48.75419" lon="1.81334">
        <ele>140</ele>
        <time>2026-05-21T08:02:52Z</time>
      </trkpt>
      <trkpt lat="48.75411" lon="1.81338">
        <ele>139.6</ele>
        <time>2026-05-21T08:03:02Z</time>
      </trkpt>
      <trkpt lat="48.75402" lon="1.81342">
        <ele>139.2</ele>
        <time>2026-05-21T08:03:14Z</time>
      </trkpt>
      <trkpt lat="48.75396" lon="1.81355">
        <ele>138.5</ele>
        <time>2026-05-21T08:03:23Z</time>
      </trkpt>
      <trkpt lat="48.75391" lon="1.81368">
        <ele>137.8</ele>
        <time>2026-05-21T08:03:31Z</time>
      </trkpt>
      <trkpt lat="48.75388" lon="1.81381">
        <ele>137.2</ele>
        <time>2026-05-21T08:03:39Z</time>
      </trkpt>
      <trkpt lat="48.75386" lon="1.81396">
        <ele>136.6</ele>
        <time>2026-05-21T08:03:47Z</time>
      </trkpt>
      <trkpt lat="48.75384" lon="1.8141">
        <ele>136</ele>
        <time>2026-05-21T08:03:55Z</time>
      </trkpt>
      <trkpt lat="48.75377" lon="1.8142">
        <ele>135.4</ele>
        <time>2026-05-21T08:04:04Z</time>
      </trkpt>
      <trkpt lat="48.75373" lon="1.81433">
        <ele>134.6</ele>
        <time>2026-05-21T08:04:12Z</time>
      </trkpt>
      <trkpt lat="48.75372" lon="1.81447">
        <ele>133.9</ele>
        <time>2026-05-21T08:04:20Z</time>
      </trkpt>
      <trkpt lat="48.75373" lon="1.81462">
        <ele>133.4</ele>
        <time>2026-05-21T08:04:28Z</time>
      </trkpt>
      <trkpt lat="48.75375" lon="1.81475">
        <ele>132.8</ele>
        <time>2026-05-21T08:04:37Z</time>
      </trkpt>
      <trkpt lat="48.75376" lon="1.8149">
        <ele>131.7</ele>
        <time>2026-05-21T08:04:50Z</time>
      </trkpt>
      <trkpt lat="48.75384" lon="1.815">
        <ele>131</ele>
        <time>2026-05-21T08:05:00Z</time>
      </trkpt>
      <trkpt lat="48.75385" lon="1.81514">
        <ele>130.5</ele>
        <time>2026-05-21T08:05:13Z</time>
      </trkpt>
      <trkpt lat="48.75382" lon="1.81527">
        <ele>130</ele>
        <time>2026-05-21T08:05:23Z</time>
      </trkpt>
      <trkpt lat="48.75383" lon="1.81541">
        <ele>129.6</ele>
        <time>2026-05-21T08:05:32Z</time>
      </trkpt>
      <trkpt lat="48.75375" lon="1.81549">
        <ele>129.6</ele>
        <time>2026-05-21T08:05:46Z</time>
      </trkpt>
      <trkpt lat="48.75368" lon="1.81557">
        <ele>129.7</ele>
        <time>2026-05-21T08:06:05Z</time>
      </trkpt>
      <trkpt lat="48.75363" lon="1.81571">
        <ele>129.4</ele>
        <time>2026-05-21T08:06:14Z</time>
      </trkpt>
      <trkpt lat="48.75364" lon="1.81584">
        <ele>128.9</ele>
        <time>2026-05-21T08:06:21Z</time>
      </trkpt>
      <trkpt lat="48.75361" lon="1.81599">
        <ele>128.5</ele>
        <time>2026-05-21T08:06:32Z</time>
      </trkpt>
      <trkpt lat="48.75359" lon="1.81613">
        <ele>128.1</ele>
        <time>2026-05-21T08:06:42Z</time>
      </trkpt>
      <trkpt lat="48.75363" lon="1.81626">
        <ele>128</ele>
        <time>2026-05-21T08:06:49Z</time>
      </trkpt>
      <trkpt lat="48.75362" lon="1.8164">
        <ele>128</ele>
        <time>2026-05-21T08:07:00Z</time>
      </trkpt>
      <trkpt lat="48.75361" lon="1.81654">
        <ele>127.5</ele>
        <time>2026-05-21T08:07:12Z</time>
      </trkpt>
      <trkpt lat="48.75363" lon="1.81667">
        <ele>127.1</ele>
        <time>2026-05-21T08:07:22Z</time>
      </trkpt>
      <trkpt lat="48.75365" lon="1.81681">
        <ele>127.1</ele>
        <time>2026-05-21T08:07:30Z</time>
      </trkpt>
      <trkpt lat="48.75366" lon="1.81695">
        <ele>127</ele>
        <time>2026-05-21T08:07:37Z</time>
      </trkpt>
      <trkpt lat="48.75361" lon="1.81708">
        <ele>127</ele>
        <time>2026-05-21T08:07:46Z</time>
      </trkpt>
      <trkpt lat="48.75356" lon="1.8172">
        <ele>127.2</ele>
        <time>2026-05-21T08:07:57Z</time>
      </trkpt>
      <trkpt lat="48.75348" lon="1.81712">
        <ele>127.5</ele>
        <time>2026-05-21T08:08:08Z</time>
      </trkpt>
      <trkpt lat="48.75344" lon="1.817">
        <ele>127.6</ele>
        <time>2026-05-21T08:08:17Z</time>
      </trkpt>
      <trkpt lat="48.75338" lon="1.81689">
        <ele>128</ele>
        <time>2026-05-21T08:08:25Z</time>
      </trkpt>
      <trkpt lat="48.75335" lon="1.81676">
        <ele>128.6</ele>
        <time>2026-05-21T08:08:34Z</time>
      </trkpt>
      <trkpt lat="48.75328" lon="1.81664">
        <ele>129.3</ele>
        <time>2026-05-21T08:08:42Z</time>
      </trkpt>
      <trkpt lat="48.75321" lon="1.81655">
        <ele>129.9</ele>
        <time>2026-05-21T08:08:50Z</time>
      </trkpt>
      <trkpt lat="48.75312" lon="1.8165">
        <ele>130.4</ele>
        <time>2026-05-21T08:08:57Z</time>
      </trkpt>
      <trkpt lat="48.75304" lon="1.81639">
        <ele>131</ele>
        <time>2026-05-21T08:09:05Z</time>
      </trkpt>
      <trkpt lat="48.75298" lon="1.81629">
        <ele>131.4</ele>
        <time>2026-05-21T08:09:13Z</time>
      </trkpt>
      <trkpt lat="48.75291" lon="1.81618">
        <ele>131.9</ele>
        <time>2026-05-21T08:09:23Z</time>
      </trkpt>
      <trkpt lat="48.75285" lon="1.81607">
        <ele>132.5</ele>
        <time>2026-05-21T08:09:33Z</time>
      </trkpt>
      <trkpt lat="48.75281" lon="1.81594">
        <ele>132.8</ele>
        <time>2026-05-21T08:09:43Z</time>
      </trkpt>
      <trkpt lat="48.75273" lon="1.81585">
        <ele>133.3</ele>
        <time>2026-05-21T08:09:51Z</time>
      </trkpt>
      <trkpt lat="48.75265" lon="1.81576">
        <ele>134.2</ele>
        <time>2026-05-21T08:10:00Z</time>
      </trkpt>
      <trkpt lat="48.75257" lon="1.81567">
        <ele>135.1</ele>
        <time>2026-05-21T08:10:08Z</time>
      </trkpt>
      <trkpt lat="48.7525" lon="1.81556">
        <ele>136</ele>
        <time>2026-05-21T08:10:17Z</time>
      </trkpt>
      <trkpt lat="48.75242" lon="1.81548">
        <ele>136.5</ele>
        <time>2026-05-21T08:10:25Z</time>
      </trkpt>
      <trkpt lat="48.75236" lon="1.81537">
        <ele>137.2</ele>
        <time>2026-05-21T08:10:34Z</time>
      </trkpt>
      <trkpt lat="48.75228" lon="1.81529">
        <ele>137.7</ele>
        <time>2026-05-21T08:10:42Z</time>
      </trkpt>
      <trkpt lat="48.7522" lon="1.8152">
        <ele>138.4</ele>
        <time>2026-05-21T08:10:51Z</time>
      </trkpt>
      <trkpt lat="48.75214" lon="1.81508">
        <ele>139.3</ele>
        <time>2026-05-21T08:11:02Z</time>
      </trkpt>
      <trkpt lat="48.7521" lon="1.81495">
        <ele>140.2</ele>
        <time>2026-05-21T08:11:12Z</time>
      </trkpt>
      <trkpt lat="48.75205" lon="1.81483">
        <ele>141.5</ele>
        <time>2026-05-21T08:11:23Z</time>
      </trkpt>
      <trkpt lat="48.75198" lon="1.81474">
        <ele>142.6</ele>
        <time>2026-05-21T08:11:31Z</time>
      </trkpt>
      <trkpt lat="48.75193" lon="1.81462">
        <ele>143.9</ele>
        <time>2026-05-21T08:11:41Z</time>
      </trkpt>
      <trkpt lat="48.75187" lon="1.81451">
        <ele>145.1</ele>
        <time>2026-05-21T08:11:50Z</time>
      </trkpt>
      <trkpt lat="48.75181" lon="1.81439">
        <ele>146.1</ele>
        <time>2026-05-21T08:12:00Z</time>
      </trkpt>
      <trkpt lat="48.75176" lon="1.81428">
        <ele>147</ele>
        <time>2026-05-21T08:12:10Z</time>
      </trkpt>
      <trkpt lat="48.75167" lon="1.81421">
        <ele>147.8</ele>
        <time>2026-05-21T08:12:18Z</time>
      </trkpt>
      <trkpt lat="48.7516" lon="1.8141">
        <ele>149.2</ele>
        <time>2026-05-21T08:12:26Z</time>
      </trkpt>
      <trkpt lat="48.75153" lon="1.81401">
        <ele>150.6</ele>
        <time>2026-05-21T08:12:35Z</time>
      </trkpt>
      <trkpt lat="48.75146" lon="1.8139">
        <ele>152.1</ele>
        <time>2026-05-21T08:12:45Z</time>
      </trkpt>
      <trkpt lat="48.75138" lon="1.81383">
        <ele>153.3</ele>
        <time>2026-05-21T08:12:56Z</time>
      </trkpt>
      <trkpt lat="48.7513" lon="1.81376">
        <ele>154.4</ele>
        <time>2026-05-21T08:13:07Z</time>
      </trkpt>
      <trkpt lat="48.75121" lon="1.81371">
        <ele>155.6</ele>
        <time>2026-05-21T08:13:17Z</time>
      </trkpt>
      <trkpt lat="48.75111" lon="1.81368">
        <ele>156.7</ele>
        <time>2026-05-21T08:13:26Z</time>
      </trkpt>
      <trkpt lat="48.75102" lon="1.81365">
        <ele>157.5</ele>
        <time>2026-05-21T08:13:35Z</time>
      </trkpt>
      <trkpt lat="48.75094" lon="1.8136">
        <ele>158.3</ele>
        <time>2026-05-21T08:13:44Z</time>
      </trkpt>
      <trkpt lat="48.75084" lon="1.81357">
        <ele>159.2</ele>
        <time>2026-05-21T08:13:53Z</time>
      </trkpt>
      <trkpt lat="48.75076" lon="1.81351">
        <ele>160.2</ele>
        <time>2026-05-21T08:14:03Z</time>
      </trkpt>
      <trkpt lat="48.75068" lon="1.81344">
        <ele>161.4</ele>
        <time>2026-05-21T08:14:12Z</time>
      </trkpt>
      <trkpt lat="48.7506" lon="1.81336">
        <ele>162.5</ele>
        <time>2026-05-21T08:14:22Z</time>
      </trkpt>
      <trkpt lat="48.75051" lon="1.8133">
        <ele>163.5</ele>
        <time>2026-05-21T08:14:30Z</time>
      </trkpt>
      <trkpt lat="48.75042" lon="1.81323">
        <ele>164.7</ele>
        <time>2026-05-21T08:14:39Z</time>
      </trkpt>
      <trkpt lat="48.75034" lon="1.81315">
        <ele>165.9</ele>
        <time>2026-05-21T08:14:48Z</time>
      </trkpt>
      <trkpt lat="48.75026" lon="1.81308">
        <ele>166.9</ele>
        <time>2026-05-21T08:14:56Z</time>
      </trkpt>
      <trkpt lat="48.75018" lon="1.81301">
        <ele>167.6</ele>
        <time>2026-05-21T08:15:03Z</time>
      </trkpt>
      <trkpt lat="48.7501" lon="1.81293">
        <ele>168.4</ele>
        <time>2026-05-21T08:15:12Z</time>
      </trkpt>
      <trkpt lat="48.75001" lon="1.81287">
        <ele>169.3</ele>
        <time>2026-05-21T08:15:21Z</time>
      </trkpt>
      <trkpt lat="48.74992" lon="1.81282">
        <ele>170</ele>
        <time>2026-05-21T08:15:29Z</time>
      </trkpt>
      <trkpt lat="48.74984" lon="1.81275">
        <ele>170.6</ele>
        <time>2026-05-21T08:15:37Z</time>
      </trkpt>
      <trkpt lat="48.74975" lon="1.81269">
        <ele>170.9</ele>
        <time>2026-05-21T08:15:45Z</time>
      </trkpt>
      <trkpt lat="48.74966" lon="1.81264">
        <ele>171.1</ele>
        <time>2026-05-21T08:15:53Z</time>
      </trkpt>
      <trkpt lat="48.74957" lon="1.81257">
        <ele>171.4</ele>
        <time>2026-05-21T08:16:01Z</time>
      </trkpt>
      <trkpt lat="48.74948" lon="1.81251">
        <ele>171.8</ele>
        <time>2026-05-21T08:16:09Z</time>
      </trkpt>
      <trkpt lat="48.7494" lon="1.81244">
        <ele>172.4</ele>
        <time>2026-05-21T08:16:17Z</time>
      </trkpt>
      <trkpt lat="48.74931" lon="1.8124">
        <ele>172.8</ele>
        <time>2026-05-21T08:16:25Z</time>
      </trkpt>
      <trkpt lat="48.74922" lon="1.81235">
        <ele>173.4</ele>
        <time>2026-05-21T08:16:33Z</time>
      </trkpt>
      <trkpt lat="48.74914" lon="1.81226">
        <ele>173.8</ele>
        <time>2026-05-21T08:16:42Z</time>
      </trkpt>
      <trkpt lat="48.74907" lon="1.81216">
        <ele>174.3</ele>
        <time>2026-05-21T08:16:50Z</time>
      </trkpt>
      <trkpt lat="48.749" lon="1.81208">
        <ele>174.8</ele>
        <time>2026-05-21T08:16:57Z</time>
      </trkpt>
      <trkpt lat="48.74892" lon="1.812">
        <ele>175.5</ele>
        <time>2026-05-21T08:17:05Z</time>
      </trkpt>
      <trkpt lat="48.74885" lon="1.81191">
        <ele>176.3</ele>
        <time>2026-05-21T08:17:13Z</time>
      </trkpt>
      <trkpt lat="48.74876" lon="1.81183">
        <ele>176.9</ele>
        <time>2026-05-21T08:17:21Z</time>
      </trkpt>
      <trkpt lat="48.74868" lon="1.81177">
        <ele>177.4</ele>
        <time>2026-05-21T08:17:29Z</time>
      </trkpt>
      <trkpt lat="48.7486" lon="1.8117">
        <ele>177.9</ele>
        <time>2026-05-21T08:17:37Z</time>
      </trkpt>
      <trkpt lat="48.74852" lon="1.81161">
        <ele>178.2</ele>
        <time>2026-05-21T08:17:45Z</time>
      </trkpt>
      <trkpt lat="48.74844" lon="1.81153">
        <ele>178.5</ele>
        <time>2026-05-21T08:17:56Z</time>
      </trkpt>
      <trkpt lat="48.74837" lon="1.81145">
        <ele>178.8</ele>
        <time>2026-05-21T08:18:08Z</time>
      </trkpt>
      <trkpt lat="48.74829" lon="1.81137">
        <ele>179</ele>
        <time>2026-05-21T08:18:18Z</time>
      </trkpt>
      <trkpt lat="48.74821" lon="1.81128">
        <ele>179</ele>
        <time>2026-05-21T08:18:27Z</time>
      </trkpt>
      <trkpt lat="48.74814" lon="1.81119">
        <ele>179</ele>
        <time>2026-05-21T08:18:35Z</time>
      </trkpt>
      <trkpt lat="48.74806" lon="1.8111">
        <ele>179</ele>
        <time>2026-05-21T08:18:45Z</time>
      </trkpt>
      <trkpt lat="48.74797" lon="1.81105">
        <ele>179.5</ele>
        <time>2026-05-21T08:18:53Z</time>
      </trkpt>
      <trkpt lat="48.7479" lon="1.81095">
        <ele>180.1</ele>
        <time>2026-05-21T08:19:01Z</time>
      </trkpt>
      <trkpt lat="48.74784" lon="1.81086">
        <ele>180.7</ele>
        <time>2026-05-21T08:19:09Z</time>
      </trkpt>
      <trkpt lat="48.74778" lon="1.81075">
        <ele>181</ele>
        <time>2026-05-21T08:19:18Z</time>
      </trkpt>
      <trkpt lat="48.7477" lon="1.81067">
        <ele>181.2</ele>
        <time>2026-05-21T08:19:26Z</time>
      </trkpt>
      <trkpt lat="48.74764" lon="1.81056">
        <ele>181.5</ele>
        <time>2026-05-21T08:19:34Z</time>
      </trkpt>
      <trkpt lat="48.74757" lon="1.81044">
        <ele>181.7</ele>
        <time>2026-05-21T08:19:42Z</time>
      </trkpt>
      <trkpt lat="48.74751" lon="1.81034">
        <ele>182</ele>
        <time>2026-05-21T08:19:50Z</time>
      </trkpt>
      <trkpt lat="48.74744" lon="1.81024">
        <ele>182</ele>
        <time>2026-05-21T08:19:58Z</time>
      </trkpt>
      <trkpt lat="48.74737" lon="1.81014">
        <ele>182</ele>
        <time>2026-05-21T08:20:06Z</time>
      </trkpt>
      <trkpt lat="48.74731" lon="1.81003">
        <ele>182</ele>
        <time>2026-05-21T08:20:14Z</time>
      </trkpt>
      <trkpt lat="48.74726" lon="1.80992">
        <ele>181.7</ele>
        <time>2026-05-21T08:20:23Z</time>
      </trkpt>
      <trkpt lat="48.74719" lon="1.80981">
        <ele>181.5</ele>
        <time>2026-05-21T08:20:32Z</time>
      </trkpt>
      <trkpt lat="48.74716" lon="1.80968">
        <ele>181.4</ele>
        <time>2026-05-21T08:20:43Z</time>
      </trkpt>
      <trkpt lat="48.74709" lon="1.80956">
        <ele>181.7</ele>
        <time>2026-05-21T08:20:51Z</time>
      </trkpt>
      <trkpt lat="48.74702" lon="1.80946">
        <ele>181.8</ele>
        <time>2026-05-21T08:20:58Z</time>
      </trkpt>
      <trkpt lat="48.74697" lon="1.80934">
        <ele>181.9</ele>
        <time>2026-05-21T08:21:06Z</time>
      </trkpt>
      <trkpt lat="48.7469" lon="1.80922">
        <ele>182.1</ele>
        <time>2026-05-21T08:21:15Z</time>
      </trkpt>
      <trkpt lat="48.74684" lon="1.8091">
        <ele>182.4</ele>
        <time>2026-05-21T08:21:24Z</time>
      </trkpt>
      <trkpt lat="48.74677" lon="1.809">
        <ele>182.6</ele>
        <time>2026-05-21T08:21:32Z</time>
      </trkpt>
      <trkpt lat="48.7467" lon="1.80891">
        <ele>182.9</ele>
        <time>2026-05-21T08:21:40Z</time>
      </trkpt>
      <trkpt lat="48.74665" lon="1.8088">
        <ele>183</ele>
        <time>2026-05-21T08:21:47Z</time>
      </trkpt>
      <trkpt lat="48.74657" lon="1.8087">
        <ele>183</ele>
        <time>2026-05-21T08:21:55Z</time>
      </trkpt>
      <trkpt lat="48.74652" lon="1.80858">
        <ele>183</ele>
        <time>2026-05-21T08:22:03Z</time>
      </trkpt>
      <trkpt lat="48.74644" lon="1.80849">
        <ele>183</ele>
        <time>2026-05-21T08:22:11Z</time>
      </trkpt>
      <trkpt lat="48.74637" lon="1.8084">
        <ele>183</ele>
        <time>2026-05-21T08:22:19Z</time>
      </trkpt>
      <trkpt lat="48.74629" lon="1.80831">
        <ele>183</ele>
        <time>2026-05-21T08:22:26Z</time>
      </trkpt>
      <trkpt lat="48.74622" lon="1.80821">
        <ele>183</ele>
        <time>2026-05-21T08:22:34Z</time>
      </trkpt>
      <trkpt lat="48.74616" lon="1.8081">
        <ele>183</ele>
        <time>2026-05-21T08:22:41Z</time>
      </trkpt>
      <trkpt lat="48.74608" lon="1.80801">
        <ele>183</ele>
        <time>2026-05-21T08:22:49Z</time>
      </trkpt>
      <trkpt lat="48.74602" lon="1.80791">
        <ele>183</ele>
        <time>2026-05-21T08:22:56Z</time>
      </trkpt>
      <trkpt lat="48.74595" lon="1.80781">
        <ele>183</ele>
        <time>2026-05-21T08:23:05Z</time>
      </trkpt>
      <trkpt lat="48.74586" lon="1.80772">
        <ele>183</ele>
        <time>2026-05-21T08:23:12Z</time>
      </trkpt>
      <trkpt lat="48.74579" lon="1.80763">
        <ele>183</ele>
        <time>2026-05-21T08:23:20Z</time>
      </trkpt>
      <trkpt lat="48.74572" lon="1.80753">
        <ele>183</ele>
        <time>2026-05-21T08:23:27Z</time>
      </trkpt>
      <trkpt lat="48.74564" lon="1.80744">
        <ele>183</ele>
        <time>2026-05-21T08:23:36Z</time>
      </trkpt>
      <trkpt lat="48.74557" lon="1.80734">
        <ele>183</ele>
        <time>2026-05-21T08:23:43Z</time>
      </trkpt>
      <trkpt lat="48.74549" lon="1.80725">
        <ele>183</ele>
        <time>2026-05-21T08:23:51Z</time>
      </trkpt>
      <trkpt lat="48.74542" lon="1.80714">
        <ele>183</ele>
        <time>2026-05-21T08:24:00Z</time>
      </trkpt>
      <trkpt lat="48.74535" lon="1.80705">
        <ele>183</ele>
        <time>2026-05-21T08:24:08Z</time>
      </trkpt>
      <trkpt lat="48.74526" lon="1.80698">
        <ele>183.1</ele>
        <time>2026-05-21T08:24:17Z</time>
      </trkpt>
      <trkpt lat="48.74517" lon="1.80693">
        <ele>183.4</ele>
        <time>2026-05-21T08:24:49Z</time>
      </trkpt>
      <trkpt lat="48.74509" lon="1.807">
        <ele>183.7</ele>
        <time>2026-05-21T08:28:39Z</time>
      </trkpt>
      <trkpt lat="48.745" lon="1.80705">
        <ele>184</ele>
        <time>2026-05-21T08:28:50Z</time>
      </trkpt>
      <trkpt lat="48.74491" lon="1.80702">
        <ele>184</ele>
        <time>2026-05-21T08:29:00Z</time>
      </trkpt>
      <trkpt lat="48.74483" lon="1.80694">
        <ele>184</ele>
        <time>2026-05-21T08:29:09Z</time>
      </trkpt>
      <trkpt lat="48.74476" lon="1.80685">
        <ele>184</ele>
        <time>2026-05-21T08:29:18Z</time>
      </trkpt>
      <trkpt lat="48.74469" lon="1.80695">
        <ele>184</ele>
        <time>2026-05-21T08:29:40Z</time>
      </trkpt>
      <trkpt lat="48.74458" lon="1.80694">
        <ele>184</ele>
        <time>2026-05-21T08:29:46Z</time>
      </trkpt>
      <trkpt lat="48.74449" lon="1.8069">
        <ele>184</ele>
        <time>2026-05-21T08:29:51Z</time>
      </trkpt>
      <trkpt lat="48.74439" lon="1.8069">
        <ele>184</ele>
        <time>2026-05-21T08:29:57Z</time>
      </trkpt>
      <trkpt lat="48.74429" lon="1.80686">
        <ele>184</ele>
        <time>2026-05-21T08:30:04Z</time>
      </trkpt>
      <trkpt lat="48.74419" lon="1.80687">
        <ele>184</ele>
        <time>2026-05-21T08:30:11Z</time>
      </trkpt>
      <trkpt lat="48.7441" lon="1.80686">
        <ele>184</ele>
        <time>2026-05-21T08:30:18Z</time>
      </trkpt>
      <trkpt lat="48.744" lon="1.80687">
        <ele>184</ele>
        <time>2026-05-21T08:30:25Z</time>
      </trkpt>
      <trkpt lat="48.74391" lon="1.80692">
        <ele>184</ele>
        <time>2026-05-21T08:30:32Z</time>
      </trkpt>
      <trkpt lat="48.74382" lon="1.8069">
        <ele>184</ele>
        <time>2026-05-21T08:30:39Z</time>
      </trkpt>
      <trkpt lat="48.74373" lon="1.80693">
        <ele>184</ele>
        <time>2026-05-21T08:30:45Z</time>
      </trkpt>
      <trkpt lat="48.74363" lon="1.80695">
        <ele>184</ele>
        <time>2026-05-21T08:30:54Z</time>
      </trkpt>
      <trkpt lat="48.74354" lon="1.80695">
        <ele>184</ele>
        <time>2026-05-21T08:31:02Z</time>
      </trkpt>
      <trkpt lat="48.74344" lon="1.80696">
        <ele>184</ele>
        <time>2026-05-21T08:31:10Z</time>
      </trkpt>
      <trkpt lat="48.74335" lon="1.80697">
        <ele>184</ele>
        <time>2026-05-21T08:31:17Z</time>
      </trkpt>
      <trkpt lat="48.74326" lon="1.807">
        <ele>184</ele>
        <time>2026-05-21T08:31:24Z</time>
      </trkpt>
      <trkpt lat="48.74316" lon="1.80703">
        <ele>184</ele>
        <time>2026-05-21T08:31:32Z</time>
      </trkpt>
      <trkpt lat="48.74306" lon="1.80705">
        <ele>184</ele>
        <time>2026-05-21T08:31:39Z</time>
      </trkpt>
      <trkpt lat="48.74296" lon="1.80707">
        <ele>184</ele>
        <time>2026-05-21T08:31:47Z</time>
      </trkpt>
      <trkpt lat="48.74287" lon="1.80709">
        <ele>184</ele>
        <time>2026-05-21T08:31:54Z</time>
      </trkpt>
      <trkpt lat="48.74278" lon="1.8071">
        <ele>184</ele>
        <time>2026-05-21T08:32:01Z</time>
      </trkpt>
      <trkpt lat="48.74268" lon="1.80713">
        <ele>184</ele>
        <time>2026-05-21T08:32:08Z</time>
      </trkpt>
      <trkpt lat="48.74259" lon="1.80715">
        <ele>184</ele>
        <time>2026-05-21T08:32:15Z</time>
      </trkpt>
      <trkpt lat="48.7425" lon="1.80716">
        <ele>184</ele>
        <time>2026-05-21T08:32:22Z</time>
      </trkpt>
      <trkpt lat="48.7424" lon="1.80718">
        <ele>184</ele>
        <time>2026-05-21T08:32:29Z</time>
      </trkpt>
      <trkpt lat="48.7423" lon="1.80719">
        <ele>184</ele>
        <time>2026-05-21T08:32:37Z</time>
      </trkpt>
      <trkpt lat="48.74221" lon="1.80721">
        <ele>184</ele>
        <time>2026-05-21T08:32:44Z</time>
      </trkpt>
      <trkpt lat="48.74212" lon="1.8072">
        <ele>184</ele>
        <time>2026-05-21T08:32:51Z</time>
      </trkpt>
      <trkpt lat="48.74202" lon="1.80723">
        <ele>184</ele>
        <time>2026-05-21T08:32:59Z</time>
      </trkpt>
      <trkpt lat="48.74193" lon="1.80727">
        <ele>184</ele>
        <time>2026-05-21T08:33:08Z</time>
      </trkpt>
      <trkpt lat="48.74184" lon="1.80727">
        <ele>184.4</ele>
        <time>2026-05-21T08:33:17Z</time>
      </trkpt>
      <trkpt lat="48.74174" lon="1.80729">
        <ele>184.7</ele>
        <time>2026-05-21T08:33:26Z</time>
      </trkpt>
      <trkpt lat="48.74164" lon="1.8073">
        <ele>185</ele>
        <time>2026-05-21T08:33:34Z</time>
      </trkpt>
      <trkpt lat="48.74155" lon="1.80731">
        <ele>185</ele>
        <time>2026-05-21T08:33:41Z</time>
      </trkpt>
      <trkpt lat="48.74146" lon="1.80734">
        <ele>185</ele>
        <time>2026-05-21T08:33:48Z</time>
      </trkpt>
      <trkpt lat="48.74137" lon="1.80738">
        <ele>185</ele>
        <time>2026-05-21T08:33:55Z</time>
      </trkpt>
      <trkpt lat="48.74127" lon="1.8074">
        <ele>185</ele>
        <time>2026-05-21T08:34:03Z</time>
      </trkpt>
      <trkpt lat="48.74117" lon="1.80739">
        <ele>185</ele>
        <time>2026-05-21T08:34:11Z</time>
      </trkpt>
      <trkpt lat="48.74108" lon="1.80741">
        <ele>185</ele>
        <time>2026-05-21T08:34:19Z</time>
      </trkpt>
      <trkpt lat="48.74098" lon="1.80745">
        <ele>185</ele>
        <time>2026-05-21T08:34:27Z</time>
      </trkpt>
      <trkpt lat="48.74088" lon="1.80748">
        <ele>185</ele>
        <time>2026-05-21T08:34:35Z</time>
      </trkpt>
      <trkpt lat="48.74078" lon="1.8075">
        <ele>185</ele>
        <time>2026-05-21T08:34:43Z</time>
      </trkpt>
      <trkpt lat="48.74068" lon="1.80752">
        <ele>185</ele>
        <time>2026-05-21T08:34:50Z</time>
      </trkpt>
      <trkpt lat="48.74059" lon="1.80754">
        <ele>185</ele>
        <time>2026-05-21T08:34:57Z</time>
      </trkpt>
      <trkpt lat="48.7405" lon="1.80755">
        <ele>185</ele>
        <time>2026-05-21T08:35:04Z</time>
      </trkpt>
      <trkpt lat="48.74041" lon="1.80757">
        <ele>185</ele>
        <time>2026-05-21T08:35:10Z</time>
      </trkpt>
      <trkpt lat="48.74032" lon="1.80761">
        <ele>185</ele>
        <time>2026-05-21T08:35:17Z</time>
      </trkpt>
      <trkpt lat="48.74023" lon="1.80764">
        <ele>185</ele>
        <time>2026-05-21T08:35:24Z</time>
      </trkpt>
      <trkpt lat="48.74013" lon="1.80763">
        <ele>185</ele>
        <time>2026-05-21T08:35:31Z</time>
      </trkpt>
      <trkpt lat="48.74003" lon="1.80763">
        <ele>185</ele>
        <time>2026-05-21T08:35:39Z</time>
      </trkpt>
      <trkpt lat="48.73994" lon="1.80767">
        <ele>185</ele>
        <time>2026-05-21T08:35:46Z</time>
      </trkpt>
      <trkpt lat="48.73985" lon="1.80768">
        <ele>185</ele>
        <time>2026-05-21T08:35:54Z</time>
      </trkpt>
      <trkpt lat="48.73975" lon="1.80769">
        <ele>185</ele>
        <time>2026-05-21T08:36:02Z</time>
      </trkpt>
      <trkpt lat="48.73966" lon="1.80772">
        <ele>185</ele>
        <time>2026-05-21T08:36:09Z</time>
      </trkpt>
      <trkpt lat="48.73957" lon="1.80777">
        <ele>185</ele>
        <time>2026-05-21T08:36:17Z</time>
      </trkpt>
      <trkpt lat="48.73948" lon="1.80779">
        <ele>185</ele>
        <time>2026-05-21T08:36:24Z</time>
      </trkpt>
      <trkpt lat="48.73938" lon="1.80778">
        <ele>185</ele>
        <time>2026-05-21T08:36:32Z</time>
      </trkpt>
      <trkpt lat="48.73928" lon="1.8078">
        <ele>185</ele>
        <time>2026-05-21T08:36:40Z</time>
      </trkpt>
      <trkpt lat="48.7392" lon="1.80784">
        <ele>185</ele>
        <time>2026-05-21T08:36:47Z</time>
      </trkpt>
      <trkpt lat="48.7391" lon="1.80786">
        <ele>185</ele>
        <time>2026-05-21T08:36:54Z</time>
      </trkpt>
      <trkpt lat="48.739" lon="1.80785">
        <ele>185</ele>
        <time>2026-05-21T08:37:01Z</time>
      </trkpt>
      <trkpt lat="48.73891" lon="1.80787">
        <ele>185</ele>
        <time>2026-05-21T08:37:08Z</time>
      </trkpt>
      <trkpt lat="48.73881" lon="1.80791">
        <ele>185</ele>
        <time>2026-05-21T08:37:16Z</time>
      </trkpt>
      <trkpt lat="48.73877" lon="1.80804">
        <ele>185</ele>
        <time>2026-05-21T08:37:23Z</time>
      </trkpt>
      <trkpt lat="48.73874" lon="1.80817">
        <ele>185</ele>
        <time>2026-05-21T08:37:30Z</time>
      </trkpt>
      <trkpt lat="48.73871" lon="1.80832">
        <ele>185</ele>
        <time>2026-05-21T08:37:37Z</time>
      </trkpt>
      <trkpt lat="48.7387" lon="1.80846">
        <ele>185</ele>
        <time>2026-05-21T08:37:44Z</time>
      </trkpt>
      <trkpt lat="48.73866" lon="1.80861">
        <ele>185</ele>
        <time>2026-05-21T08:37:52Z</time>
      </trkpt>
      <trkpt lat="48.73866" lon="1.80875">
        <ele>185</ele>
        <time>2026-05-21T08:37:59Z</time>
      </trkpt>
      <trkpt lat="48.73865" lon="1.8089">
        <ele>185</ele>
        <time>2026-05-21T08:38:07Z</time>
      </trkpt>
      <trkpt lat="48.73863" lon="1.80906">
        <ele>185</ele>
        <time>2026-05-21T08:38:14Z</time>
      </trkpt>
      <trkpt lat="48.7386" lon="1.8092">
        <ele>185</ele>
        <time>2026-05-21T08:38:21Z</time>
      </trkpt>
      <trkpt lat="48.73858" lon="1.80934">
        <ele>185</ele>
        <time>2026-05-21T08:38:28Z</time>
      </trkpt>
      <trkpt lat="48.73856" lon="1.80949">
        <ele>185</ele>
        <time>2026-05-21T08:38:36Z</time>
      </trkpt>
      <trkpt lat="48.73855" lon="1.80963">
        <ele>185</ele>
        <time>2026-05-21T08:38:43Z</time>
      </trkpt>
      <trkpt lat="48.73855" lon="1.80979">
        <ele>185</ele>
        <time>2026-05-21T08:38:51Z</time>
      </trkpt>
      <trkpt lat="48.73853" lon="1.80993">
        <ele>185</ele>
        <time>2026-05-21T08:38:59Z</time>
      </trkpt>
      <trkpt lat="48.73848" lon="1.81007">
        <ele>185</ele>
        <time>2026-05-21T08:39:08Z</time>
      </trkpt>
      <trkpt lat="48.73847" lon="1.81022">
        <ele>185</ele>
        <time>2026-05-21T08:39:17Z</time>
      </trkpt>
      <trkpt lat="48.73849" lon="1.81036">
        <ele>185</ele>
        <time>2026-05-21T08:39:23Z</time>
      </trkpt>
      <trkpt lat="48.73854" lon="1.8105">
        <ele>185</ele>
        <time>2026-05-21T08:39:30Z</time>
      </trkpt>
      <trkpt lat="48.73858" lon="1.81063">
        <ele>185</ele>
        <time>2026-05-21T08:39:36Z</time>
      </trkpt>
      <trkpt lat="48.73863" lon="1.81077">
        <ele>185</ele>
        <time>2026-05-21T08:39:43Z</time>
      </trkpt>
      <trkpt lat="48.73867" lon="1.8109">
        <ele>185</ele>
        <time>2026-05-21T08:39:50Z</time>
      </trkpt>
      <trkpt lat="48.7387" lon="1.81104">
        <ele>185</ele>
        <time>2026-05-21T08:39:57Z</time>
      </trkpt>
      <trkpt lat="48.73875" lon="1.81118">
        <ele>185</ele>
        <time>2026-05-21T08:40:05Z</time>
      </trkpt>
      <trkpt lat="48.7388" lon="1.81131">
        <ele>185</ele>
        <time>2026-05-21T08:40:12Z</time>
      </trkpt>
      <trkpt lat="48.73886" lon="1.81142">
        <ele>185</ele>
        <time>2026-05-21T08:40:18Z</time>
      </trkpt>
      <trkpt lat="48.7389" lon="1.81155">
        <ele>185</ele>
        <time>2026-05-21T08:40:25Z</time>
      </trkpt>
      <trkpt lat="48.73892" lon="1.8117">
        <ele>185</ele>
        <time>2026-05-21T08:40:33Z</time>
      </trkpt>
      <trkpt lat="48.739" lon="1.81178">
        <ele>185</ele>
        <time>2026-05-21T08:40:40Z</time>
      </trkpt>
      <trkpt lat="48.739" lon="1.81191">
        <ele>185</ele>
        <time>2026-05-21T08:40:47Z</time>
      </trkpt>
      <trkpt lat="48.73901" lon="1.81206">
        <ele>185</ele>
        <time>2026-05-21T08:40:55Z</time>
      </trkpt>
      <trkpt lat="48.73902" lon="1.8122">
        <ele>185</ele>
        <time>2026-05-21T08:41:03Z</time>
      </trkpt>
      <trkpt lat="48.73904" lon="1.81236">
        <ele>184.7</ele>
        <time>2026-05-21T08:41:11Z</time>
      </trkpt>
      <trkpt lat="48.73904" lon="1.8125">
        <ele>184.4</ele>
        <time>2026-05-21T08:41:18Z</time>
      </trkpt>
      <trkpt lat="48.73906" lon="1.81263">
        <ele>184.2</ele>
        <time>2026-05-21T08:41:25Z</time>
      </trkpt>
      <trkpt lat="48.7391" lon="1.81278">
        <ele>184</ele>
        <time>2026-05-21T08:41:32Z</time>
      </trkpt>
      <trkpt lat="48.73913" lon="1.81292">
        <ele>184</ele>
        <time>2026-05-21T08:41:39Z</time>
      </trkpt>
      <trkpt lat="48.73914" lon="1.81306">
        <ele>184</ele>
        <time>2026-05-21T08:41:46Z</time>
      </trkpt>
      <trkpt lat="48.73917" lon="1.81321">
        <ele>184</ele>
        <time>2026-05-21T08:41:54Z</time>
      </trkpt>
      <trkpt lat="48.73918" lon="1.81336">
        <ele>184</ele>
        <time>2026-05-21T08:42:02Z</time>
      </trkpt>
      <trkpt lat="48.73921" lon="1.8135">
        <ele>184</ele>
        <time>2026-05-21T08:42:09Z</time>
      </trkpt>
      <trkpt lat="48.73922" lon="1.81363">
        <ele>184</ele>
        <time>2026-05-21T08:42:16Z</time>
      </trkpt>
      <trkpt lat="48.73924" lon="1.81377">
        <ele>184</ele>
        <time>2026-05-21T08:42:23Z</time>
      </trkpt>
      <trkpt lat="48.73924" lon="1.81391">
        <ele>184</ele>
        <time>2026-05-21T08:42:30Z</time>
      </trkpt>
      <trkpt lat="48.73928" lon="1.81404">
        <ele>184</ele>
        <time>2026-05-21T08:42:36Z</time>
      </trkpt>
      <trkpt lat="48.73926" lon="1.81418">
        <ele>184</ele>
        <time>2026-05-21T08:42:44Z</time>
      </trkpt>
      <trkpt lat="48.7393" lon="1.81431">
        <ele>184</ele>
        <time>2026-05-21T08:42:50Z</time>
      </trkpt>
      <trkpt lat="48.73932" lon="1.81445">
        <ele>184</ele>
        <time>2026-05-21T08:42:57Z</time>
      </trkpt>
      <trkpt lat="48.73934" lon="1.8146">
        <ele>184</ele>
        <time>2026-05-21T08:43:05Z</time>
      </trkpt>
      <trkpt lat="48.73938" lon="1.81473">
        <ele>184</ele>
        <time>2026-05-21T08:43:12Z</time>
      </trkpt>
      <trkpt lat="48.73942" lon="1.81487">
        <ele>184</ele>
        <time>2026-05-21T08:43:19Z</time>
      </trkpt>
      <trkpt lat="48.73946" lon="1.81501">
        <ele>184</ele>
        <time>2026-05-21T08:43:26Z</time>
      </trkpt>
      <trkpt lat="48.73949" lon="1.81517">
        <ele>184</ele>
        <time>2026-05-21T08:43:34Z</time>
      </trkpt>
      <trkpt lat="48.73951" lon="1.81532">
        <ele>184</ele>
        <time>2026-05-21T08:43:42Z</time>
      </trkpt>
      <trkpt lat="48.73952" lon="1.81546">
        <ele>184</ele>
        <time>2026-05-21T08:43:50Z</time>
      </trkpt>
      <trkpt lat="48.73955" lon="1.8156">
        <ele>184</ele>
        <time>2026-05-21T08:43:58Z</time>
      </trkpt>
      <trkpt lat="48.73955" lon="1.81574">
        <ele>184</ele>
        <time>2026-05-21T08:44:06Z</time>
      </trkpt>
      <trkpt lat="48.73956" lon="1.81588">
        <ele>184</ele>
        <time>2026-05-21T08:44:13Z</time>
      </trkpt>
      <trkpt lat="48.73958" lon="1.81602">
        <ele>184</ele>
        <time>2026-05-21T08:44:20Z</time>
      </trkpt>
      <trkpt lat="48.73959" lon="1.81617">
        <ele>184</ele>
        <time>2026-05-21T08:44:27Z</time>
      </trkpt>
      <trkpt lat="48.73961" lon="1.81632">
        <ele>184</ele>
        <time>2026-05-21T08:44:34Z</time>
      </trkpt>
      <trkpt lat="48.73963" lon="1.81647">
        <ele>184</ele>
        <time>2026-05-21T08:44:41Z</time>
      </trkpt>
      <trkpt lat="48.73963" lon="1.8166">
        <ele>184</ele>
        <time>2026-05-21T08:44:48Z</time>
      </trkpt>
      <trkpt lat="48.73964" lon="1.81674">
        <ele>184</ele>
        <time>2026-05-21T08:44:55Z</time>
      </trkpt>
      <trkpt lat="48.73966" lon="1.81689">
        <ele>184</ele>
        <time>2026-05-21T08:45:03Z</time>
      </trkpt>
      <trkpt lat="48.73968" lon="1.81703">
        <ele>184</ele>
        <time>2026-05-21T08:45:10Z</time>
      </trkpt>
      <trkpt lat="48.73973" lon="1.81716">
        <ele>184</ele>
        <time>2026-05-21T08:45:17Z</time>
      </trkpt>
      <trkpt lat="48.73976" lon="1.8173">
        <ele>184</ele>
        <time>2026-05-21T08:45:25Z</time>
      </trkpt>
      <trkpt lat="48.73977" lon="1.81745">
        <ele>184</ele>
        <time>2026-05-21T08:45:33Z</time>
      </trkpt>
      <trkpt lat="48.73979" lon="1.81759">
        <ele>184</ele>
        <time>2026-05-21T08:45:40Z</time>
      </trkpt>
      <trkpt lat="48.73981" lon="1.81773">
        <ele>184</ele>
        <time>2026-05-21T08:45:47Z</time>
      </trkpt>
      <trkpt lat="48.73983" lon="1.81787">
        <ele>183.9</ele>
        <time>2026-05-21T08:45:54Z</time>
      </trkpt>
      <trkpt lat="48.73984" lon="1.81801">
        <ele>183.6</ele>
        <time>2026-05-21T08:46:01Z</time>
      </trkpt>
      <trkpt lat="48.73986" lon="1.81816">
        <ele>183.3</ele>
        <time>2026-05-21T08:46:09Z</time>
      </trkpt>
      <trkpt lat="48.73987" lon="1.8183">
        <ele>183</ele>
        <time>2026-05-21T08:46:18Z</time>
      </trkpt>
      <trkpt lat="48.7399" lon="1.81845">
        <ele>183</ele>
        <time>2026-05-21T08:46:27Z</time>
      </trkpt>
      <trkpt lat="48.73992" lon="1.81858">
        <ele>183</ele>
        <time>2026-05-21T08:46:34Z</time>
      </trkpt>
      <trkpt lat="48.73994" lon="1.81873">
        <ele>183</ele>
        <time>2026-05-21T08:46:42Z</time>
      </trkpt>
      <trkpt lat="48.73997" lon="1.81888">
        <ele>183</ele>
        <time>2026-05-21T08:46:49Z</time>
      </trkpt>
      <trkpt lat="48.73997" lon="1.81902">
        <ele>183</ele>
        <time>2026-05-21T08:46:57Z</time>
      </trkpt>
      <trkpt lat="48.74" lon="1.81917">
        <ele>183</ele>
        <time>2026-05-21T08:47:05Z</time>
      </trkpt>
      <trkpt lat="48.74003" lon="1.8193">
        <ele>183</ele>
        <time>2026-05-21T08:47:12Z</time>
      </trkpt>
      <trkpt lat="48.74005" lon="1.81945">
        <ele>183</ele>
        <time>2026-05-21T08:47:21Z</time>
      </trkpt>
      <trkpt lat="48.74005" lon="1.81959">
        <ele>183</ele>
        <time>2026-05-21T08:47:28Z</time>
      </trkpt>
      <trkpt lat="48.74005" lon="1.81973">
        <ele>183</ele>
        <time>2026-05-21T08:47:35Z</time>
      </trkpt>
      <trkpt lat="48.74004" lon="1.81987">
        <ele>183</ele>
        <time>2026-05-21T08:47:42Z</time>
      </trkpt>
      <trkpt lat="48.74003" lon="1.82002">
        <ele>183</ele>
        <time>2026-05-21T08:47:50Z</time>
      </trkpt>
      <trkpt lat="48.74" lon="1.82015">
        <ele>183</ele>
        <time>2026-05-21T08:47:57Z</time>
      </trkpt>
      <trkpt lat="48.73996" lon="1.82028">
        <ele>183</ele>
        <time>2026-05-21T08:48:05Z</time>
      </trkpt>
      <trkpt lat="48.73994" lon="1.82043">
        <ele>183</ele>
        <time>2026-05-21T08:48:12Z</time>
      </trkpt>
      <trkpt lat="48.73991" lon="1.82057">
        <ele>183</ele>
        <time>2026-05-21T08:48:19Z</time>
      </trkpt>
      <trkpt lat="48.73989" lon="1.82072">
        <ele>183</ele>
        <time>2026-05-21T08:48:26Z</time>
      </trkpt>
      <trkpt lat="48.73989" lon="1.82086">
        <ele>183</ele>
        <time>2026-05-21T08:48:32Z</time>
      </trkpt>
      <trkpt lat="48.73989" lon="1.82102">
        <ele>183</ele>
        <time>2026-05-21T08:48:39Z</time>
      </trkpt>
      <trkpt lat="48.7399" lon="1.82117">
        <ele>183</ele>
        <time>2026-05-21T08:48:46Z</time>
      </trkpt>
      <trkpt lat="48.73991" lon="1.82131">
        <ele>183</ele>
        <time>2026-05-21T08:48:53Z</time>
      </trkpt>
      <trkpt lat="48.7399" lon="1.82146">
        <ele>183</ele>
        <time>2026-05-21T08:49:01Z</time>
      </trkpt>
      <trkpt lat="48.73988" lon="1.82161">
        <ele>183</ele>
        <time>2026-05-21T08:49:08Z</time>
      </trkpt>
      <trkpt lat="48.73986" lon="1.82175">
        <ele>183</ele>
        <time>2026-05-21T08:49:16Z</time>
      </trkpt>
      <trkpt lat="48.73985" lon="1.8219">
        <ele>183</ele>
        <time>2026-05-21T08:49:23Z</time>
      </trkpt>
      <trkpt lat="48.73982" lon="1.82203">
        <ele>183</ele>
        <time>2026-05-21T08:49:30Z</time>
      </trkpt>
      <trkpt lat="48.73979" lon="1.82218">
        <ele>183</ele>
        <time>2026-05-21T08:49:38Z</time>
      </trkpt>
      <trkpt lat="48.73976" lon="1.82232">
        <ele>182.6</ele>
        <time>2026-05-21T08:49:46Z</time>
      </trkpt>
      <trkpt lat="48.73972" lon="1.82247">
        <ele>182.1</ele>
        <time>2026-05-21T08:49:53Z</time>
      </trkpt>
      <trkpt lat="48.73971" lon="1.8226">
        <ele>182</ele>
        <time>2026-05-21T08:50:00Z</time>
      </trkpt>
      <trkpt lat="48.7397" lon="1.82274">
        <ele>182</ele>
        <time>2026-05-21T08:50:07Z</time>
      </trkpt>
      <trkpt lat="48.73972" lon="1.82289">
        <ele>182</ele>
        <time>2026-05-21T08:50:14Z</time>
      </trkpt>
      <trkpt lat="48.73976" lon="1.82303">
        <ele>182</ele>
        <time>2026-05-21T08:50:21Z</time>
      </trkpt>
      <trkpt lat="48.7398" lon="1.82316">
        <ele>182</ele>
        <time>2026-05-21T08:50:29Z</time>
      </trkpt>
      <trkpt lat="48.73986" lon="1.82328">
        <ele>182</ele>
        <time>2026-05-21T08:50:36Z</time>
      </trkpt>
      <trkpt lat="48.73991" lon="1.82341">
        <ele>181.7</ele>
        <time>2026-05-21T08:50:43Z</time>
      </trkpt>
      <trkpt lat="48.73995" lon="1.82355">
        <ele>181.2</ele>
        <time>2026-05-21T08:50:51Z</time>
      </trkpt>
      <trkpt lat="48.73996" lon="1.8237">
        <ele>181</ele>
        <time>2026-05-21T08:50:59Z</time>
      </trkpt>
      <trkpt lat="48.73997" lon="1.82385">
        <ele>181</ele>
        <time>2026-05-21T08:51:07Z</time>
      </trkpt>
      <trkpt lat="48.74" lon="1.82398">
        <ele>181</ele>
        <time>2026-05-21T08:51:14Z</time>
      </trkpt>
      <trkpt lat="48.74004" lon="1.82411">
        <ele>181</ele>
        <time>2026-05-21T08:51:21Z</time>
      </trkpt>
      <trkpt lat="48.74007" lon="1.82425">
        <ele>181</ele>
        <time>2026-05-21T08:51:28Z</time>
      </trkpt>
      <trkpt lat="48.74009" lon="1.82438">
        <ele>181</ele>
        <time>2026-05-21T08:51:34Z</time>
      </trkpt>
      <trkpt lat="48.74013" lon="1.82451">
        <ele>181</ele>
        <time>2026-05-21T08:51:41Z</time>
      </trkpt>
      <trkpt lat="48.74015" lon="1.82465">
        <ele>181</ele>
        <time>2026-05-21T08:51:48Z</time>
      </trkpt>
      <trkpt lat="48.74016" lon="1.8248">
        <ele>181</ele>
        <time>2026-05-21T08:51:56Z</time>
      </trkpt>
      <trkpt lat="48.74017" lon="1.82495">
        <ele>181</ele>
        <time>2026-05-21T08:52:04Z</time>
      </trkpt>
      <trkpt lat="48.74019" lon="1.8251">
        <ele>180.6</ele>
        <time>2026-05-21T08:52:13Z</time>
      </trkpt>
      <trkpt lat="48.74021" lon="1.82524">
        <ele>180.1</ele>
        <time>2026-05-21T08:52:20Z</time>
      </trkpt>
      <trkpt lat="48.74021" lon="1.82538">
        <ele>180</ele>
        <time>2026-05-21T08:52:27Z</time>
      </trkpt>
      <trkpt lat="48.74021" lon="1.82552">
        <ele>180</ele>
        <time>2026-05-21T08:52:34Z</time>
      </trkpt>
      <trkpt lat="48.74022" lon="1.82567">
        <ele>180</ele>
        <time>2026-05-21T08:52:41Z</time>
      </trkpt>
      <trkpt lat="48.74023" lon="1.82582">
        <ele>180</ele>
        <time>2026-05-21T08:52:48Z</time>
      </trkpt>
      <trkpt lat="48.74024" lon="1.82596">
        <ele>179.6</ele>
        <time>2026-05-21T08:52:55Z</time>
      </trkpt>
      <trkpt lat="48.74023" lon="1.8261">
        <ele>179.2</ele>
        <time>2026-05-21T08:53:02Z</time>
      </trkpt>
      <trkpt lat="48.74022" lon="1.82625">
        <ele>179.2</ele>
        <time>2026-05-21T08:53:10Z</time>
      </trkpt>
      <trkpt lat="48.74022" lon="1.82639">
        <ele>179.2</ele>
        <time>2026-05-21T08:53:18Z</time>
      </trkpt>
      <trkpt lat="48.74022" lon="1.82653">
        <ele>179.2</ele>
        <time>2026-05-21T08:53:26Z</time>
      </trkpt>
      <trkpt lat="48.74022" lon="1.82668">
        <ele>179.2</ele>
        <time>2026-05-21T08:53:34Z</time>
      </trkpt>
      <trkpt lat="48.7402" lon="1.82682">
        <ele>179.3</ele>
        <time>2026-05-21T08:53:41Z</time>
      </trkpt>
      <trkpt lat="48.74018" lon="1.82696">
        <ele>179.3</ele>
        <time>2026-05-21T08:53:49Z</time>
      </trkpt>
      <trkpt lat="48.74018" lon="1.8271">
        <ele>179.4</ele>
        <time>2026-05-21T08:53:57Z</time>
      </trkpt>
      <trkpt lat="48.74014" lon="1.82724">
        <ele>179.5</ele>
        <time>2026-05-21T08:54:06Z</time>
      </trkpt>
      <trkpt lat="48.74013" lon="1.82739">
        <ele>179.5</ele>
        <time>2026-05-21T08:54:14Z</time>
      </trkpt>
      <trkpt lat="48.74019" lon="1.8275">
        <ele>179.3</ele>
        <time>2026-05-21T08:54:23Z</time>
      </trkpt>
      <trkpt lat="48.74028" lon="1.82755">
        <ele>179</ele>
        <time>2026-05-21T08:55:43Z</time>
      </trkpt>
      <trkpt lat="48.74038" lon="1.82754">
        <ele>179</ele>
        <time>2026-05-21T08:55:57Z</time>
      </trkpt>
      <trkpt lat="48.74047" lon="1.82749">
        <ele>179</ele>
        <time>2026-05-21T08:56:08Z</time>
      </trkpt>
      <trkpt lat="48.74055" lon="1.82743">
        <ele>179</ele>
        <time>2026-05-21T08:56:17Z</time>
      </trkpt>
      <trkpt lat="48.74064" lon="1.8274">
        <ele>178.7</ele>
        <time>2026-05-21T08:56:25Z</time>
      </trkpt>
      <trkpt lat="48.74074" lon="1.82737">
        <ele>178.3</ele>
        <time>2026-05-21T08:56:33Z</time>
      </trkpt>
      <trkpt lat="48.74083" lon="1.82732">
        <ele>178</ele>
        <time>2026-05-21T08:56:40Z</time>
      </trkpt>
      <trkpt lat="48.74092" lon="1.82726">
        <ele>178</ele>
        <time>2026-05-21T08:56:48Z</time>
      </trkpt>
      <trkpt lat="48.74101" lon="1.82723">
        <ele>178</ele>
        <time>2026-05-21T08:56:55Z</time>
      </trkpt>
      <trkpt lat="48.7411" lon="1.82719">
        <ele>178</ele>
        <time>2026-05-21T08:57:02Z</time>
      </trkpt>
      <trkpt lat="48.7412" lon="1.82715">
        <ele>177.8</ele>
        <time>2026-05-21T08:57:10Z</time>
      </trkpt>
      <trkpt lat="48.74129" lon="1.82709">
        <ele>177.7</ele>
        <time>2026-05-21T08:57:18Z</time>
      </trkpt>
      <trkpt lat="48.74138" lon="1.82705">
        <ele>177.6</ele>
        <time>2026-05-21T08:57:26Z</time>
      </trkpt>
      <trkpt lat="48.74147" lon="1.82702">
        <ele>177.6</ele>
        <time>2026-05-21T08:57:34Z</time>
      </trkpt>
      <trkpt lat="48.74157" lon="1.82697">
        <ele>177.8</ele>
        <time>2026-05-21T08:57:43Z</time>
      </trkpt>
      <trkpt lat="48.74166" lon="1.82692">
        <ele>178</ele>
        <time>2026-05-21T08:57:51Z</time>
      </trkpt>
      <trkpt lat="48.74173" lon="1.82683">
        <ele>177.9</ele>
        <time>2026-05-21T08:57:58Z</time>
      </trkpt>
      <trkpt lat="48.74182" lon="1.82679">
        <ele>177.8</ele>
        <time>2026-05-21T08:58:06Z</time>
      </trkpt>
      <trkpt lat="48.7419" lon="1.82672">
        <ele>177.8</ele>
        <time>2026-05-21T08:58:13Z</time>
      </trkpt>
      <trkpt lat="48.74199" lon="1.82664">
        <ele>178</ele>
        <time>2026-05-21T08:58:20Z</time>
      </trkpt>
      <trkpt lat="48.74208" lon="1.82658">
        <ele>178</ele>
        <time>2026-05-21T08:58:27Z</time>
      </trkpt>
      <trkpt lat="48.74217" lon="1.82653">
        <ele>178</ele>
        <time>2026-05-21T08:58:35Z</time>
      </trkpt>
      <trkpt lat="48.74227" lon="1.82648">
        <ele>177.8</ele>
        <time>2026-05-21T08:58:43Z</time>
      </trkpt>
      <trkpt lat="48.74236" lon="1.82643">
        <ele>177.4</ele>
        <time>2026-05-21T08:58:50Z</time>
      </trkpt>
      <trkpt lat="48.74244" lon="1.82638">
        <ele>177.3</ele>
        <time>2026-05-21T08:58:57Z</time>
      </trkpt>
      <trkpt lat="48.74252" lon="1.82632">
        <ele>177.2</ele>
        <time>2026-05-21T08:59:04Z</time>
      </trkpt>
      <trkpt lat="48.74261" lon="1.82626">
        <ele>177.5</ele>
        <time>2026-05-21T08:59:11Z</time>
      </trkpt>
      <trkpt lat="48.7427" lon="1.82621">
        <ele>177.7</ele>
        <time>2026-05-21T08:59:18Z</time>
      </trkpt>
      <trkpt lat="48.74279" lon="1.82614">
        <ele>177.8</ele>
        <time>2026-05-21T08:59:26Z</time>
      </trkpt>
      <trkpt lat="48.74288" lon="1.82611">
        <ele>177.6</ele>
        <time>2026-05-21T08:59:33Z</time>
      </trkpt>
      <trkpt lat="48.74298" lon="1.82605">
        <ele>177.4</ele>
        <time>2026-05-21T08:59:40Z</time>
      </trkpt>
      <trkpt lat="48.74307" lon="1.82601">
        <ele>177.3</ele>
        <time>2026-05-21T08:59:47Z</time>
      </trkpt>
      <trkpt lat="48.74316" lon="1.82594">
        <ele>177.2</ele>
        <time>2026-05-21T08:59:54Z</time>
      </trkpt>
      <trkpt lat="48.74325" lon="1.8259">
        <ele>177.1</ele>
        <time>2026-05-21T09:00:01Z</time>
      </trkpt>
      <trkpt lat="48.74335" lon="1.82586">
        <ele>176.8</ele>
        <time>2026-05-21T09:00:09Z</time>
      </trkpt>
      <trkpt lat="48.74343" lon="1.82581">
        <ele>176.6</ele>
        <time>2026-05-21T09:00:16Z</time>
      </trkpt>
      <trkpt lat="48.74352" lon="1.82578">
        <ele>176.3</ele>
        <time>2026-05-21T09:00:22Z</time>
      </trkpt>
      <trkpt lat="48.74361" lon="1.82575">
        <ele>176</ele>
        <time>2026-05-21T09:00:29Z</time>
      </trkpt>
      <trkpt lat="48.7437" lon="1.8257">
        <ele>175.5</ele>
        <time>2026-05-21T09:00:36Z</time>
      </trkpt>
      <trkpt lat="48.74379" lon="1.82565">
        <ele>175.1</ele>
        <time>2026-05-21T09:00:43Z</time>
      </trkpt>
      <trkpt lat="48.74388" lon="1.82562">
        <ele>174.8</ele>
        <time>2026-05-21T09:00:50Z</time>
      </trkpt>
      <trkpt lat="48.74397" lon="1.82559">
        <ele>174.3</ele>
        <time>2026-05-21T09:00:57Z</time>
      </trkpt>
      <trkpt lat="48.74406" lon="1.82557">
        <ele>173.7</ele>
        <time>2026-05-21T09:01:04Z</time>
      </trkpt>
      <trkpt lat="48.74415" lon="1.82558">
        <ele>173</ele>
        <time>2026-05-21T09:01:11Z</time>
      </trkpt>
      <trkpt lat="48.74424" lon="1.82555">
        <ele>172.8</ele>
        <time>2026-05-21T09:01:18Z</time>
      </trkpt>
      <trkpt lat="48.74433" lon="1.82556">
        <ele>172.4</ele>
        <time>2026-05-21T09:01:25Z</time>
      </trkpt>
      <trkpt lat="48.74443" lon="1.82557">
        <ele>171.9</ele>
        <time>2026-05-21T09:01:33Z</time>
      </trkpt>
      <trkpt lat="48.74453" lon="1.82556">
        <ele>171.7</ele>
        <time>2026-05-21T09:01:40Z</time>
      </trkpt>
      <trkpt lat="48.74463" lon="1.82555">
        <ele>171.4</ele>
        <time>2026-05-21T09:01:47Z</time>
      </trkpt>
      <trkpt lat="48.74473" lon="1.82551">
        <ele>171.1</ele>
        <time>2026-05-21T09:01:54Z</time>
      </trkpt>
      <trkpt lat="48.74482" lon="1.82548">
        <ele>170.9</ele>
        <time>2026-05-21T09:02:01Z</time>
      </trkpt>
      <trkpt lat="48.74491" lon="1.82543">
        <ele>170.8</ele>
        <time>2026-05-21T09:02:08Z</time>
      </trkpt>
      <trkpt lat="48.745" lon="1.82539">
        <ele>170.6</ele>
        <time>2026-05-21T09:02:14Z</time>
      </trkpt>
      <trkpt lat="48.7451" lon="1.82535">
        <ele>170.4</ele>
        <time>2026-05-21T09:02:21Z</time>
      </trkpt>
      <trkpt lat="48.7452" lon="1.82529">
        <ele>170.3</ele>
        <time>2026-05-21T09:02:28Z</time>
      </trkpt>
      <trkpt lat="48.74529" lon="1.82521">
        <ele>170</ele>
        <time>2026-05-21T09:02:35Z</time>
      </trkpt>
      <trkpt lat="48.74538" lon="1.82514">
        <ele>169.6</ele>
        <time>2026-05-21T09:02:42Z</time>
      </trkpt>
      <trkpt lat="48.74547" lon="1.82507">
        <ele>169.3</ele>
        <time>2026-05-21T09:02:49Z</time>
      </trkpt>
      <trkpt lat="48.74555" lon="1.82501">
        <ele>169</ele>
        <time>2026-05-21T09:02:56Z</time>
      </trkpt>
      <trkpt lat="48.74564" lon="1.82493">
        <ele>168.2</ele>
        <time>2026-05-21T09:03:03Z</time>
      </trkpt>
      <trkpt lat="48.74573" lon="1.82487">
        <ele>167.6</ele>
        <time>2026-05-21T09:03:11Z</time>
      </trkpt>
      <trkpt lat="48.74581" lon="1.82479">
        <ele>167.1</ele>
        <time>2026-05-21T09:03:18Z</time>
      </trkpt>
      <trkpt lat="48.74587" lon="1.82469">
        <ele>166.5</ele>
        <time>2026-05-21T09:03:25Z</time>
      </trkpt>
      <trkpt lat="48.74594" lon="1.82459">
        <ele>165.4</ele>
        <time>2026-05-21T09:03:32Z</time>
      </trkpt>
      <trkpt lat="48.746" lon="1.82447">
        <ele>164.3</ele>
        <time>2026-05-21T09:03:40Z</time>
      </trkpt>
      <trkpt lat="48.74606" lon="1.82437">
        <ele>163.5</ele>
        <time>2026-05-21T09:03:47Z</time>
      </trkpt>
      <trkpt lat="48.74611" lon="1.82425">
        <ele>162.9</ele>
        <time>2026-05-21T09:03:54Z</time>
      </trkpt>
      <trkpt lat="48.74618" lon="1.82414">
        <ele>161.9</ele>
        <time>2026-05-21T09:04:01Z</time>
      </trkpt>
      <trkpt lat="48.74624" lon="1.82401">
        <ele>160.3</ele>
        <time>2026-05-21T09:04:09Z</time>
      </trkpt>
      <trkpt lat="48.74629" lon="1.8239">
        <ele>159.1</ele>
        <time>2026-05-21T09:04:16Z</time>
      </trkpt>
      <trkpt lat="48.74636" lon="1.8238">
        <ele>157.7</ele>
        <time>2026-05-21T09:04:24Z</time>
      </trkpt>
      <trkpt lat="48.74646" lon="1.82378">
        <ele>156.5</ele>
        <time>2026-05-21T09:04:33Z</time>
      </trkpt>
      <trkpt lat="48.74655" lon="1.82375">
        <ele>155.3</ele>
        <time>2026-05-21T09:04:41Z</time>
      </trkpt>
      <trkpt lat="48.74664" lon="1.82368">
        <ele>153.8</ele>
        <time>2026-05-21T09:04:49Z</time>
      </trkpt>
      <trkpt lat="48.74672" lon="1.82363">
        <ele>152.7</ele>
        <time>2026-05-21T09:04:56Z</time>
      </trkpt>
      <trkpt lat="48.74682" lon="1.82365">
        <ele>152.1</ele>
        <time>2026-05-21T09:05:04Z</time>
      </trkpt>
      <trkpt lat="48.74691" lon="1.82366">
        <ele>151.5</ele>
        <time>2026-05-21T09:05:11Z</time>
      </trkpt>
      <trkpt lat="48.74699" lon="1.82363">
        <ele>150.7</ele>
        <time>2026-05-21T09:05:18Z</time>
      </trkpt>
      <trkpt lat="48.74708" lon="1.82356">
        <ele>149.8</ele>
        <time>2026-05-21T09:05:25Z</time>
      </trkpt>
      <trkpt lat="48.74716" lon="1.82346">
        <ele>148.9</ele>
        <time>2026-05-21T09:05:33Z</time>
      </trkpt>
      <trkpt lat="48.74724" lon="1.82338">
        <ele>148.1</ele>
        <time>2026-05-21T09:05:40Z</time>
      </trkpt>
      <trkpt lat="48.74732" lon="1.8233">
        <ele>147.2</ele>
        <time>2026-05-21T09:05:48Z</time>
      </trkpt>
      <trkpt lat="48.74741" lon="1.82327">
        <ele>146.5</ele>
        <time>2026-05-21T09:05:56Z</time>
      </trkpt>
      <trkpt lat="48.74751" lon="1.82326">
        <ele>145.7</ele>
        <time>2026-05-21T09:06:04Z</time>
      </trkpt>
      <trkpt lat="48.74759" lon="1.82323">
        <ele>144.6</ele>
        <time>2026-05-21T09:06:11Z</time>
      </trkpt>
      <trkpt lat="48.74768" lon="1.82322">
        <ele>143.6</ele>
        <time>2026-05-21T09:06:19Z</time>
      </trkpt>
      <trkpt lat="48.74778" lon="1.82321">
        <ele>142.6</ele>
        <time>2026-05-21T09:06:27Z</time>
      </trkpt>
      <trkpt lat="48.74787" lon="1.82317">
        <ele>142</ele>
        <time>2026-05-21T09:06:35Z</time>
      </trkpt>
      <trkpt lat="48.74796" lon="1.82314">
        <ele>141.4</ele>
        <time>2026-05-21T09:06:43Z</time>
      </trkpt>
      <trkpt lat="48.74806" lon="1.82313">
        <ele>141</ele>
        <time>2026-05-21T09:06:51Z</time>
      </trkpt>
      <trkpt lat="48.74815" lon="1.82313">
        <ele>140.8</ele>
        <time>2026-05-21T09:07:31Z</time>
      </trkpt>
      <trkpt lat="48.74825" lon="1.82316">
        <ele>140.5</ele>
        <time>2026-05-21T09:07:42Z</time>
      </trkpt>
      <trkpt lat="48.74835" lon="1.82318">
        <ele>140.1</ele>
        <time>2026-05-21T09:07:51Z</time>
      </trkpt>
      <trkpt lat="48.74845" lon="1.82321">
        <ele>139.9</ele>
        <time>2026-05-21T09:08:00Z</time>
      </trkpt>
      <trkpt lat="48.74854" lon="1.82324">
        <ele>139.7</ele>
        <time>2026-05-21T09:08:12Z</time>
      </trkpt>
      <trkpt lat="48.74863" lon="1.82329">
        <ele>139.5</ele>
        <time>2026-05-21T09:09:00Z</time>
      </trkpt>
      <trkpt lat="48.74871" lon="1.82338">
        <ele>139.8</ele>
        <time>2026-05-21T09:09:17Z</time>
      </trkpt>
      <trkpt lat="48.74877" lon="1.82348">
        <ele>139.9</ele>
        <time>2026-05-21T09:09:25Z</time>
      </trkpt>
      <trkpt lat="48.74882" lon="1.82359">
        <ele>139.6</ele>
        <time>2026-05-21T09:09:33Z</time>
      </trkpt>
      <trkpt lat="48.74888" lon="1.82371">
        <ele>139.6</ele>
        <time>2026-05-21T09:09:41Z</time>
      </trkpt>
      <trkpt lat="48.74896" lon="1.82377">
        <ele>140</ele>
        <time>2026-05-21T09:10:12Z</time>
      </trkpt>
      <trkpt lat="48.74904" lon="1.82386">
        <ele>140.2</ele>
        <time>2026-05-21T09:10:20Z</time>
      </trkpt>
      <trkpt lat="48.74906" lon="1.82399">
        <ele>139.9</ele>
        <time>2026-05-21T09:10:27Z</time>
      </trkpt>
      <trkpt lat="48.74912" lon="1.82412">
        <ele>139.8</ele>
        <time>2026-05-21T09:10:36Z</time>
      </trkpt>
      <trkpt lat="48.7492" lon="1.8242">
        <ele>140</ele>
        <time>2026-05-21T09:10:45Z</time>
      </trkpt>
      <trkpt lat="48.7493" lon="1.82425">
        <ele>140.2</ele>
        <time>2026-05-21T09:10:55Z</time>
      </trkpt>
      <trkpt lat="48.74939" lon="1.82428">
        <ele>140.4</ele>
        <time>2026-05-21T09:11:04Z</time>
      </trkpt>
      <trkpt lat="48.74948" lon="1.8243">
        <ele>140.3</ele>
        <time>2026-05-21T09:11:12Z</time>
      </trkpt>
      <trkpt lat="48.74958" lon="1.82432">
        <ele>139.7</ele>
        <time>2026-05-21T09:11:20Z</time>
      </trkpt>
      <trkpt lat="48.74968" lon="1.8243">
        <ele>139.3</ele>
        <time>2026-05-21T09:11:28Z</time>
      </trkpt>
      <trkpt lat="48.74977" lon="1.82429">
        <ele>138.8</ele>
        <time>2026-05-21T09:11:35Z</time>
      </trkpt>
      <trkpt lat="48.74988" lon="1.82426">
        <ele>138.4</ele>
        <time>2026-05-21T09:11:43Z</time>
      </trkpt>
      <trkpt lat="48.74997" lon="1.82422">
        <ele>138</ele>
        <time>2026-05-21T09:11:52Z</time>
      </trkpt>
      <trkpt lat="48.75006" lon="1.82418">
        <ele>137.5</ele>
        <time>2026-05-21T09:12:00Z</time>
      </trkpt>
      <trkpt lat="48.75014" lon="1.8241">
        <ele>137.2</ele>
        <time>2026-05-21T09:12:08Z</time>
      </trkpt>
      <trkpt lat="48.75022" lon="1.82403">
        <ele>136.9</ele>
        <time>2026-05-21T09:12:15Z</time>
      </trkpt>
      <trkpt lat="48.7503" lon="1.82395">
        <ele>136.7</ele>
        <time>2026-05-21T09:12:22Z</time>
      </trkpt>
      <trkpt lat="48.75037" lon="1.82388">
        <ele>136.3</ele>
        <time>2026-05-21T09:12:30Z</time>
      </trkpt>
      <trkpt lat="48.75046" lon="1.82381">
        <ele>135.8</ele>
        <time>2026-05-21T09:12:39Z</time>
      </trkpt>
      <trkpt lat="48.75055" lon="1.82378">
        <ele>135</ele>
        <time>2026-05-21T09:12:49Z</time>
      </trkpt>
      <trkpt lat="48.75059" lon="1.82392">
        <ele>134.6</ele>
        <time>2026-05-21T09:13:00Z</time>
      </trkpt>
      <trkpt lat="48.75063" lon="1.82404">
        <ele>133.8</ele>
        <time>2026-05-21T09:13:08Z</time>
      </trkpt>
      <trkpt lat="48.75067" lon="1.82417">
        <ele>133.1</ele>
        <time>2026-05-21T09:13:16Z</time>
      </trkpt>
      <trkpt lat="48.75069" lon="1.82432">
        <ele>133</ele>
        <time>2026-05-21T09:13:24Z</time>
      </trkpt>
      <trkpt lat="48.75071" lon="1.82446">
        <ele>132.8</ele>
        <time>2026-05-21T09:13:32Z</time>
      </trkpt>
      <trkpt lat="48.75075" lon="1.82459">
        <ele>132.4</ele>
        <time>2026-05-21T09:13:40Z</time>
      </trkpt>
      <trkpt lat="48.7508" lon="1.82472">
        <ele>132.1</ele>
        <time>2026-05-21T09:13:48Z</time>
      </trkpt>
      <trkpt lat="48.75084" lon="1.82485">
        <ele>131.5</ele>
        <time>2026-05-21T09:13:56Z</time>
      </trkpt>
      <trkpt lat="48.7509" lon="1.82497">
        <ele>130.8</ele>
        <time>2026-05-21T09:14:04Z</time>
      </trkpt>
      <trkpt lat="48.75097" lon="1.82506">
        <ele>130.5</ele>
        <time>2026-05-21T09:14:11Z</time>
      </trkpt>
      <trkpt lat="48.75106" lon="1.82512">
        <ele>130.2</ele>
        <time>2026-05-21T09:14:18Z</time>
      </trkpt>
      <trkpt lat="48.75114" lon="1.82521">
        <ele>129.8</ele>
        <time>2026-05-21T09:14:26Z</time>
      </trkpt>
      <trkpt lat="48.75122" lon="1.82529">
        <ele>129.2</ele>
        <time>2026-05-21T09:14:34Z</time>
      </trkpt>
      <trkpt lat="48.75131" lon="1.82531">
        <ele>128.4</ele>
        <time>2026-05-21T09:14:41Z</time>
      </trkpt>
      <trkpt lat="48.75141" lon="1.82527">
        <ele>127.8</ele>
        <time>2026-05-21T09:14:48Z</time>
      </trkpt>
      <trkpt lat="48.75149" lon="1.82536">
        <ele>127.1</ele>
        <time>2026-05-21T09:14:57Z</time>
      </trkpt>
      <trkpt lat="48.75155" lon="1.82547">
        <ele>126.5</ele>
        <time>2026-05-21T09:15:05Z</time>
      </trkpt>
      <trkpt lat="48.75162" lon="1.82559">
        <ele>126.1</ele>
        <time>2026-05-21T09:15:13Z</time>
      </trkpt>
      <trkpt lat="48.75168" lon="1.82571">
        <ele>125.4</ele>
        <time>2026-05-21T09:15:21Z</time>
      </trkpt>
      <trkpt lat="48.75174" lon="1.82582">
        <ele>124.8</ele>
        <time>2026-05-21T09:15:29Z</time>
      </trkpt>
      <trkpt lat="48.75181" lon="1.82593">
        <ele>124.5</ele>
        <time>2026-05-21T09:15:38Z</time>
      </trkpt>
      <trkpt lat="48.75186" lon="1.82603">
        <ele>124.3</ele>
        <time>2026-05-21T09:15:46Z</time>
      </trkpt>
      <trkpt lat="48.75197" lon="1.82607">
        <ele>123.8</ele>
        <time>2026-05-21T09:15:57Z</time>
      </trkpt>
      <trkpt lat="48.75201" lon="1.8262">
        <ele>123.2</ele>
        <time>2026-05-21T09:16:05Z</time>
      </trkpt>
      <trkpt lat="48.75204" lon="1.82633">
        <ele>122.5</ele>
        <time>2026-05-21T09:16:12Z</time>
      </trkpt>
      <trkpt lat="48.75209" lon="1.82646">
        <ele>121.8</ele>
        <time>2026-05-21T09:16:20Z</time>
      </trkpt>
      <trkpt lat="48.75215" lon="1.82657">
        <ele>121.3</ele>
        <time>2026-05-21T09:16:29Z</time>
      </trkpt>
      <trkpt lat="48.75221" lon="1.82668">
        <ele>121</ele>
        <time>2026-05-21T09:16:37Z</time>
      </trkpt>
      <trkpt lat="48.75226" lon="1.82681">
        <ele>120.2</ele>
        <time>2026-05-21T09:16:45Z</time>
      </trkpt>
      <trkpt lat="48.75232" lon="1.82692">
        <ele>119.4</ele>
        <time>2026-05-21T09:16:53Z</time>
      </trkpt>
      <trkpt lat="48.75239" lon="1.82702">
        <ele>119</ele>
        <time>2026-05-21T09:17:01Z</time>
      </trkpt>
      <trkpt lat="48.75246" lon="1.82713">
        <ele>118.9</ele>
        <time>2026-05-21T09:17:10Z</time>
      </trkpt>
      <trkpt lat="48.75247" lon="1.82728">
        <ele>119.1</ele>
        <time>2026-05-21T09:17:21Z</time>
      </trkpt>
      <trkpt lat="48.75239" lon="1.82733">
        <ele>119.4</ele>
        <time>2026-05-21T09:17:30Z</time>
      </trkpt>
      <trkpt lat="48.7523" lon="1.82739">
        <ele>119.7</ele>
        <time>2026-05-21T09:17:39Z</time>
      </trkpt>
      <trkpt lat="48.75221" lon="1.82746">
        <ele>120</ele>
        <time>2026-05-21T09:17:49Z</time>
      </trkpt>
      <trkpt lat="48.75214" lon="1.82756">
        <ele>120.4</ele>
        <time>2026-05-21T09:17:58Z</time>
      </trkpt>
      <trkpt lat="48.75209" lon="1.82769">
        <ele>120.8</ele>
        <time>2026-05-21T09:18:06Z</time>
      </trkpt>
      <trkpt lat="48.75203" lon="1.82781">
        <ele>121.1</ele>
        <time>2026-05-21T09:18:14Z</time>
      </trkpt>
      <trkpt lat="48.75196" lon="1.82791">
        <ele>121.5</ele>
        <time>2026-05-21T09:18:22Z</time>
      </trkpt>
      <trkpt lat="48.75189" lon="1.82799">
        <ele>121.8</ele>
        <time>2026-05-21T09:18:30Z</time>
      </trkpt>
      <trkpt lat="48.75179" lon="1.82802">
        <ele>121.9</ele>
        <time>2026-05-21T09:18:39Z</time>
      </trkpt>
      <trkpt lat="48.7517" lon="1.82806">
        <ele>122</ele>
        <time>2026-05-21T09:18:48Z</time>
      </trkpt>
      <trkpt lat="48.7516" lon="1.82809">
        <ele>122</ele>
        <time>2026-05-21T09:18:57Z</time>
      </trkpt>
      <trkpt lat="48.7515" lon="1.8281">
        <ele>122.1</ele>
        <time>2026-05-21T09:19:06Z</time>
      </trkpt>
      <trkpt lat="48.7514" lon="1.82811">
        <ele>122.2</ele>
        <time>2026-05-21T09:19:15Z</time>
      </trkpt>
      <trkpt lat="48.75131" lon="1.82813">
        <ele>122.8</ele>
        <time>2026-05-21T09:19:24Z</time>
      </trkpt>
      <trkpt lat="48.75125" lon="1.82823">
        <ele>123.6</ele>
        <time>2026-05-21T09:19:34Z</time>
      </trkpt>
      <trkpt lat="48.75128" lon="1.82836">
        <ele>123.9</ele>
        <time>2026-05-21T09:19:42Z</time>
      </trkpt>
      <trkpt lat="48.75135" lon="1.82847">
        <ele>123.8</ele>
        <time>2026-05-21T09:19:51Z</time>
      </trkpt>
      <trkpt lat="48.7514" lon="1.82859">
        <ele>124</ele>
        <time>2026-05-21T09:19:59Z</time>
      </trkpt>
      <trkpt lat="48.75148" lon="1.82866">
        <ele>124.9</ele>
        <time>2026-05-21T09:20:06Z</time>
      </trkpt>
      <trkpt lat="48.75156" lon="1.82872">
        <ele>125.8</ele>
        <time>2026-05-21T09:20:13Z</time>
      </trkpt>
      <trkpt lat="48.75166" lon="1.82873">
        <ele>126.3</ele>
        <time>2026-05-21T09:20:21Z</time>
      </trkpt>
      <trkpt lat="48.75175" lon="1.82876">
        <ele>126.9</ele>
        <time>2026-05-21T09:20:29Z</time>
      </trkpt>
      <trkpt lat="48.75185" lon="1.82879">
        <ele>127.6</ele>
        <time>2026-05-21T09:20:38Z</time>
      </trkpt>
      <trkpt lat="48.75194" lon="1.82877">
        <ele>127.7</ele>
        <time>2026-05-21T09:20:45Z</time>
      </trkpt>
      <trkpt lat="48.75203" lon="1.82879">
        <ele>128.3</ele>
        <time>2026-05-21T09:20:53Z</time>
      </trkpt>
      <trkpt lat="48.75213" lon="1.8288">
        <ele>128.7</ele>
        <time>2026-05-21T09:21:01Z</time>
      </trkpt>
      <trkpt lat="48.75222" lon="1.82885">
        <ele>129.5</ele>
        <time>2026-05-21T09:21:09Z</time>
      </trkpt>
      <trkpt lat="48.7523" lon="1.82892">
        <ele>130.3</ele>
        <time>2026-05-21T09:21:18Z</time>
      </trkpt>
      <trkpt lat="48.7524" lon="1.82898">
        <ele>130.8</ele>
        <time>2026-05-21T09:21:26Z</time>
      </trkpt>
      <trkpt lat="48.75249" lon="1.82903">
        <ele>131.1</ele>
        <time>2026-05-21T09:21:33Z</time>
      </trkpt>
      <trkpt lat="48.75258" lon="1.82907">
        <ele>130.9</ele>
        <time>2026-05-21T09:21:41Z</time>
      </trkpt>
      <trkpt lat="48.75267" lon="1.82913">
        <ele>131.1</ele>
        <time>2026-05-21T09:21:49Z</time>
      </trkpt>
      <trkpt lat="48.75276" lon="1.82919">
        <ele>131.1</ele>
        <time>2026-05-21T09:21:57Z</time>
      </trkpt>
      <trkpt lat="48.75285" lon="1.82928">
        <ele>130.7</ele>
        <time>2026-05-21T09:22:05Z</time>
      </trkpt>
      <trkpt lat="48.75292" lon="1.82936">
        <ele>130.2</ele>
        <time>2026-05-21T09:22:12Z</time>
      </trkpt>
      <trkpt lat="48.75299" lon="1.82945">
        <ele>129.7</ele>
        <time>2026-05-21T09:22:19Z</time>
      </trkpt>
      <trkpt lat="48.75305" lon="1.82956">
        <ele>128.6</ele>
        <time>2026-05-21T09:22:27Z</time>
      </trkpt>
      <trkpt lat="48.75311" lon="1.82967">
        <ele>127.8</ele>
        <time>2026-05-21T09:22:33Z</time>
      </trkpt>
      <trkpt lat="48.75318" lon="1.82978">
        <ele>127.1</ele>
        <time>2026-05-21T09:22:41Z</time>
      </trkpt>
      <trkpt lat="48.75325" lon="1.82986">
        <ele>126.6</ele>
        <time>2026-05-21T09:22:48Z</time>
      </trkpt>
      <trkpt lat="48.75334" lon="1.82994">
        <ele>126</ele>
        <time>2026-05-21T09:22:56Z</time>
      </trkpt>
      <trkpt lat="48.7534" lon="1.83006">
        <ele>125.8</ele>
        <time>2026-05-21T09:23:04Z</time>
      </trkpt>
      <trkpt lat="48.75347" lon="1.83016">
        <ele>125.9</ele>
        <time>2026-05-21T09:23:12Z</time>
      </trkpt>
      <trkpt lat="48.75353" lon="1.83028">
        <ele>126.3</ele>
        <time>2026-05-21T09:23:20Z</time>
      </trkpt>
      <trkpt lat="48.7536" lon="1.83038">
        <ele>126.8</ele>
        <time>2026-05-21T09:23:28Z</time>
      </trkpt>
      <trkpt lat="48.75368" lon="1.83048">
        <ele>126.9</ele>
        <time>2026-05-21T09:23:36Z</time>
      </trkpt>
      <trkpt lat="48.75374" lon="1.83057">
        <ele>127.2</ele>
        <time>2026-05-21T09:23:44Z</time>
      </trkpt>
      <trkpt lat="48.7538" lon="1.83068">
        <ele>127.4</ele>
        <time>2026-05-21T09:23:52Z</time>
      </trkpt>
      <trkpt lat="48.75385" lon="1.83081">
        <ele>127.5</ele>
        <time>2026-05-21T09:24:00Z</time>
      </trkpt>
      <trkpt lat="48.75392" lon="1.83093">
        <ele>127.5</ele>
        <time>2026-05-21T09:24:08Z</time>
      </trkpt>
      <trkpt lat="48.75396" lon="1.83105">
        <ele>128</ele>
        <time>2026-05-21T09:24:16Z</time>
      </trkpt>
      <trkpt lat="48.75402" lon="1.83118">
        <ele>128.7</ele>
        <time>2026-05-21T09:24:25Z</time>
      </trkpt>
      <trkpt lat="48.75407" lon="1.83129">
        <ele>129.2</ele>
        <time>2026-05-21T09:24:33Z</time>
      </trkpt>
      <trkpt lat="48.75412" lon="1.83142">
        <ele>129.7</ele>
        <time>2026-05-21T09:24:42Z</time>
      </trkpt>
      <trkpt lat="48.75416" lon="1.83155">
        <ele>130.2</ele>
        <time>2026-05-21T09:24:51Z</time>
      </trkpt>
      <trkpt lat="48.75421" lon="1.83167">
        <ele>130.7</ele>
        <time>2026-05-21T09:24:59Z</time>
      </trkpt>
      <trkpt lat="48.75425" lon="1.83179">
        <ele>130.8</ele>
        <time>2026-05-21T09:25:07Z</time>
      </trkpt>
      <trkpt lat="48.7543" lon="1.83191">
        <ele>130.9</ele>
        <time>2026-05-21T09:25:16Z</time>
      </trkpt>
      <trkpt lat="48.75433" lon="1.83204">
        <ele>131.2</ele>
        <time>2026-05-21T09:25:25Z</time>
      </trkpt>
      <trkpt lat="48.75441" lon="1.83212">
        <ele>130.9</ele>
        <time>2026-05-21T09:25:36Z</time>
      </trkpt>
      <trkpt lat="48.7545" lon="1.83209">
        <ele>130.1</ele>
        <time>2026-05-21T09:25:44Z</time>
      </trkpt>
      <trkpt lat="48.75459" lon="1.83206">
        <ele>129.4</ele>
        <time>2026-05-21T09:25:52Z</time>
      </trkpt>
      <trkpt lat="48.75469" lon="1.83203">
        <ele>128.5</ele>
        <time>2026-05-21T09:26:00Z</time>
      </trkpt>
      <trkpt lat="48.75479" lon="1.83202">
        <ele>127.6</ele>
        <time>2026-05-21T09:26:09Z</time>
      </trkpt>
      <trkpt lat="48.75488" lon="1.83204">
        <ele>126.6</ele>
        <time>2026-05-21T09:26:17Z</time>
      </trkpt>
      <trkpt lat="48.75496" lon="1.83211">
        <ele>126</ele>
        <time>2026-05-21T09:26:25Z</time>
      </trkpt>
      <trkpt lat="48.75505" lon="1.83218">
        <ele>125.4</ele>
        <time>2026-05-21T09:26:33Z</time>
      </trkpt>
      <trkpt lat="48.75512" lon="1.83229">
        <ele>124.9</ele>
        <time>2026-05-21T09:26:41Z</time>
      </trkpt>
      <trkpt lat="48.75517" lon="1.83241">
        <ele>124.4</ele>
        <time>2026-05-21T09:26:49Z</time>
      </trkpt>
      <trkpt lat="48.7552" lon="1.83254">
        <ele>124.1</ele>
        <time>2026-05-21T09:26:56Z</time>
      </trkpt>
      <trkpt lat="48.75523" lon="1.83267">
        <ele>123.7</ele>
        <time>2026-05-21T09:27:04Z</time>
      </trkpt>
      <trkpt lat="48.75527" lon="1.8328">
        <ele>123</ele>
        <time>2026-05-21T09:27:12Z</time>
      </trkpt>
      <trkpt lat="48.75531" lon="1.83292">
        <ele>122.2</ele>
        <time>2026-05-21T09:27:20Z</time>
      </trkpt>
      <trkpt lat="48.75535" lon="1.83305">
        <ele>121.2</ele>
        <time>2026-05-21T09:27:28Z</time>
      </trkpt>
      <trkpt lat="48.75538" lon="1.8332">
        <ele>120.4</ele>
        <time>2026-05-21T09:27:36Z</time>
      </trkpt>
      <trkpt lat="48.75542" lon="1.83331">
        <ele>119.5</ele>
        <time>2026-05-21T09:27:43Z</time>
      </trkpt>
      <trkpt lat="48.75545" lon="1.83344">
        <ele>118.9</ele>
        <time>2026-05-21T09:27:50Z</time>
      </trkpt>
      <trkpt lat="48.75551" lon="1.83355">
        <ele>118.4</ele>
        <time>2026-05-21T09:27:57Z</time>
      </trkpt>
      <trkpt lat="48.75557" lon="1.83368">
        <ele>117.9</ele>
        <time>2026-05-21T09:28:05Z</time>
      </trkpt>
      <trkpt lat="48.75561" lon="1.8338">
        <ele>117.7</ele>
        <time>2026-05-21T09:28:13Z</time>
      </trkpt>
      <trkpt lat="48.75566" lon="1.83392">
        <ele>117.3</ele>
        <time>2026-05-21T09:28:21Z</time>
      </trkpt>
      <trkpt lat="48.75571" lon="1.83405">
        <ele>117.5</ele>
        <time>2026-05-21T09:28:29Z</time>
      </trkpt>
      <trkpt lat="48.75575" lon="1.83418">
        <ele>117.6</ele>
        <time>2026-05-21T09:28:36Z</time>
      </trkpt>
      <trkpt lat="48.7558" lon="1.83431">
        <ele>117.2</ele>
        <time>2026-05-21T09:28:44Z</time>
      </trkpt>
      <trkpt lat="48.75585" lon="1.83443">
        <ele>116.9</ele>
        <time>2026-05-21T09:28:51Z</time>
      </trkpt>
      <trkpt lat="48.75589" lon="1.83456">
        <ele>116.6</ele>
        <time>2026-05-21T09:28:59Z</time>
      </trkpt>
      <trkpt lat="48.75594" lon="1.83468">
        <ele>116.3</ele>
        <time>2026-05-21T09:29:06Z</time>
      </trkpt>
      <trkpt lat="48.75599" lon="1.8348">
        <ele>116</ele>
        <time>2026-05-21T09:29:13Z</time>
      </trkpt>
      <trkpt lat="48.75606" lon="1.8349">
        <ele>115.9</ele>
        <time>2026-05-21T09:29:20Z</time>
      </trkpt>
      <trkpt lat="48.75615" lon="1.83491">
        <ele>115.3</ele>
        <time>2026-05-21T09:29:28Z</time>
      </trkpt>
      <trkpt lat="48.75625" lon="1.83493">
        <ele>114.4</ele>
        <time>2026-05-21T09:29:36Z</time>
      </trkpt>
      <trkpt lat="48.75634" lon="1.83495">
        <ele>113.5</ele>
        <time>2026-05-21T09:29:43Z</time>
      </trkpt>
      <trkpt lat="48.75643" lon="1.83494">
        <ele>112.9</ele>
        <time>2026-05-21T09:29:50Z</time>
      </trkpt>
      <trkpt lat="48.7565" lon="1.83503">
        <ele>112.7</ele>
        <time>2026-05-21T09:29:57Z</time>
      </trkpt>
      <trkpt lat="48.75655" lon="1.83516">
        <ele>112.7</ele>
        <time>2026-05-21T09:30:04Z</time>
      </trkpt>
      <trkpt lat="48.75661" lon="1.83528">
        <ele>112.4</ele>
        <time>2026-05-21T09:30:11Z</time>
      </trkpt>
      <trkpt lat="48.75667" lon="1.8354">
        <ele>112.5</ele>
        <time>2026-05-21T09:30:19Z</time>
      </trkpt>
      <trkpt lat="48.75673" lon="1.83552">
        <ele>112.7</ele>
        <time>2026-05-21T09:30:27Z</time>
      </trkpt>
      <trkpt lat="48.75677" lon="1.83564">
        <ele>112.6</ele>
        <time>2026-05-21T09:30:34Z</time>
      </trkpt>
      <trkpt lat="48.75683" lon="1.83576">
        <ele>112.4</ele>
        <time>2026-05-21T09:30:42Z</time>
      </trkpt>
      <trkpt lat="48.75689" lon="1.83588">
        <ele>112.4</ele>
        <time>2026-05-21T09:30:51Z</time>
      </trkpt>
      <trkpt lat="48.75694" lon="1.836">
        <ele>112.6</ele>
        <time>2026-05-21T09:31:00Z</time>
      </trkpt>
      <trkpt lat="48.75703" lon="1.83594">
        <ele>112.1</ele>
        <time>2026-05-21T09:31:10Z</time>
      </trkpt>
      <trkpt lat="48.75709" lon="1.83583">
        <ele>111.5</ele>
        <time>2026-05-21T09:31:20Z</time>
      </trkpt>
      <trkpt lat="48.75716" lon="1.83574">
        <ele>111.2</ele>
        <time>2026-05-21T09:31:34Z</time>
      </trkpt>
      <trkpt lat="48.75718" lon="1.83559">
        <ele>111.2</ele>
        <time>2026-05-21T09:31:55Z</time>
      </trkpt>
      <trkpt lat="48.75717" lon="1.83545">
        <ele>111.1</ele>
        <time>2026-05-21T09:32:06Z</time>
      </trkpt>
      <trkpt lat="48.75717" lon="1.83532">
        <ele>111</ele>
        <time>2026-05-21T09:32:16Z</time>
      </trkpt>
      <trkpt lat="48.75718" lon="1.83517">
        <ele>111</ele>
        <time>2026-05-21T09:32:26Z</time>
      </trkpt>
    </trkseg>
  </trk>
</gpx>